Return to Metar
SPECI CYNL 201310Z AUTO 17006KT 3SM CLR M33/M38 A3010 RMK AO1 PRESFR SLP306
SPECI CYNL 201309Z AUTO 17006KT 2 1/2SM CLR M33/M38 A3010 RMK AO1 PRESFR SLP306
SPECI CYNL 201304Z AUTO 16006KT 4SM CLR M33/M38 A3010 RMK AO1 PRESFR SLP306
SPECI CYNL 201302Z AUTO 16005KT 2 1/2SM CLR M33/M38 A3010 RMK AO1 PRESFR SLP307
METAR CYNL 201300Z AUTO 17005KT 9SM CLR M33/M38 A3010 RMK AO1 PRESFR SLP307
METAR CYNL 201200Z AUTO 16006KT 9SM CLR M33/M38 A3013 RMK AO1 PRESFR SLP316
METAR CYNL 201100Z AUTO 17005KT 9SM CLR M34/M39 A3017 RMK AO1 PRESFR SLP328
METAR CYNL 201000Z AUTO 16003KT 9SM CLR M34/M39 A3020 RMK AO1 SLP338
METAR CYNL 200900Z AUTO ///// 9SM CLR M34/M39 A3022 RMK AO1 SLP342
METAR CYNL 200800Z AUTO 00000KT 9SM CLR M34/M39 A3023 RMK AO1 SLP345
METAR CYNL 200700Z AUTO 16004KT 9SM CLR M34/M38 A3025 RMK AO1 PRESFR SLP352
METAR CYNL 200600Z AUTO ///// 9SM CLR M34/M39 A3028 RMK AO1 SLP366
METAR CYNL 200500Z AUTO ///// 9SM CLR M35/M40 A3030 RMK AO1 SLP375
METAR CYNL 200400Z AUTO 18003KT 9SM CLR M34/M39 A3030 RMK AO1 SLP384
METAR CYNL 200300Z AUTO 18003KT 9SM CLR M32/M37 A3031 RMK AO1 SLP388
METAR CYNL 200200Z AUTO 19003KT 9SM CLR M32/M37 A3031 RMK AO1 SLP391
METAR CYNL 200100Z AUTO ///// 9SM CLR M32/M36 A3033 RMK AO1 SLP394
METAR CYNL 200000Z AUTO ///// 9SM CLR M31/M35 A3034 RMK AO1 SLP397
METAR CYNL 192300Z AUTO 15003KT 9SM CLR M30/M34 A3036 RMK AO1 SLP402
METAR CYNL 192200Z AUTO ///// 9SM CLR M27/M32 A3038 RMK AO1 SLP401
METAR CYNL 192100Z AUTO ///// 9SM CLR M26/M31 A3038 RMK AO1 SLP401
METAR CYNL 192000Z AUTO ///// 9SM CLR M27/M32 A3040 RMK AO1 SLP407
METAR CYNL 191900Z AUTO ///// 9SM CLR M30/M34 A3040 RMK AO1 SLP411
METAR CYNL 191800Z AUTO 00000KT 8SM CLR M32/M37 A3041 RMK AO1 SLP417
SPECI CYNL 191756Z AUTO 23002KT 4SM CLR M32/M37 A3041 RMK AO1 SLP416
SPECI CYNL 191755Z AUTO 00000KT 1 3/4SM CLR M32/M37 A3041 RMK AO1 SLP416
SPECI CYNL 191754Z AUTO 00000KT 1SM CLR M32/M37 A3041 RMK AO1 SLP416
SPECI CYNL 191752Z AUTO 00000KT 3/4SM CLR M32/M37 A3041 RMK AO1 SLP417
SPECI CYNL 191737Z AUTO 00000KT 1/2SM CLR M34/M39 A3041 RMK AO1 SLP419
SPECI CYNL 191736Z AUTO 00000KT 1SM CLR M34/M39 A3041 RMK AO1 SLP419
SPECI CYNL 191734Z AUTO 00000KT 1 1/2SM CLR M34/M39 A3042 RMK AO1 SLP420
SPECI CYNL 191720Z AUTO 24002KT 9SM CLR M35/M40 A3042 RMK AO1 SLP422
SPECI CYNL 191719Z AUTO 00000KT 2 1/2SM CLR M35/M40 A3042 RMK AO1 SLP422
SPECI CYNL 191718Z AUTO 00000KT 1SM CLR M35/M41 A3042 RMK AO1 SLP422
SPECI CYNL 191712Z AUTO 00000KT 1/2SM CLR M36/M42 A3042 RMK AO1 SLP423
SPECI CYNL 191710Z AUTO 00000KT 1 3/4SM CLR M36/M42 A3042 RMK AO1 SLP423
SPECI CYNL 191709Z AUTO 00000KT 2 1/2SM CLR M36/M42 A3042 RMK AO1 SLP423
METAR CYNL 191700Z AUTO 00000KT 9SM CLR M37/M42 A3042 RMK AO1 SLP425
SPECI CYNL 191649Z AUTO 24003KT 7SM CLR M37/M42 A3042 RMK AO1 SLP424
SPECI CYNL 191648Z AUTO 24003KT 2SM CLR M37/M42 A3042 RMK AO1 SLP425
SPECI CYNL 191647Z AUTO 00000KT 1 3/4SM CLR M37/M42 A3042 RMK AO1 SLP425
SPECI CYNL 191646Z AUTO 00000KT 2 1/2SM CLR M37/M42 A3042 RMK AO1 SLP425
SPECI CYNL 191626Z AUTO 00000KT 4SM CLR M39/M44 A3043 RMK AO1 SLP430
SPECI CYNL 191622Z AUTO ///// 1SM CLR M39/M45 A3043 RMK AO1 SLP430
SPECI CYNL 191620Z AUTO 00000KT 3/4SM CLR M39/M45 A3043 RMK AO1 SLP431
SPECI CYNL 191619Z AUTO 00000KT 1SM CLR M39/M45 A3043 RMK AO1 SLP431
SPECI CYNL 191616Z AUTO 00000KT 2 1/2SM CLR M39/M45 A3043 RMK AO1 SLP432
SPECI CYNL 191615Z AUTO 00000KT 1 1/2SM CLR M39/M45 A3043 RMK AO1 SLP432
SPECI CYNL 191614Z AUTO 00000KT 2SM CLR M39/M45 A3043 RMK AO1 SLP432
METAR CYNL 191600Z AUTO ///// 9SM CLR M40/M45 A3043 RMK AO1 SLP432
SPECI CYNL 191508Z AUTO 25004KT 9SM CLR M41/M47 A3043 RMK AO1 SLP433
SPECI CYNL 191507Z AUTO 24004KT 2 1/2SM CLR M41/M47 A3043 RMK AO1 SLP433
SPECI CYNL 191506Z AUTO 24003KT 1SM CLR M41/M47 A3043 RMK AO1 SLP433
SPECI CYNL 191505Z AUTO 24003KT 3/4SM CLR M41/M47 A3043 RMK AO1 SLP433
SPECI CYNL 191504Z AUTO 24003KT 1SM CLR M41/M47 A3043 RMK AO1 SLP433
SPECI CYNL 191503Z AUTO ///// 1 1/2SM CLR M41/M47 A3043 RMK AO1 SLP434
METAR CYNL 191500Z AUTO 26002KT 9SM CLR M41/M47 A3043 RMK AO1 SLP433
SPECI CYNL 191441Z AUTO 00000KT 6SM CLR M41/M46 A3042 RMK AO1 SLP430
SPECI CYNL 191438Z AUTO 00000KT 2 1/2SM CLR M41/M46 A3043 RMK AO1 SLP430
METAR CYNL 191400Z AUTO 24003KT 9SM CLR M40/M46 A3044 RMK AO1 SLP435
SPECI CYNL 191348Z AUTO VRB03KT 3SM CLR M41/M46 A3044 RMK AO1 SLP433
SPECI CYNL 191347Z AUTO 00000KT 1 3/4SM CLR M41/M46 A3044 RMK AO1 SLP433
SPECI CYNL 191346Z AUTO 00000KT 1SM CLR M41/M46 A3044 RMK AO1 SLP432
SPECI CYNL 191344Z AUTO 00000KT 1/2SM CLR M41/M46 A3043 RMK AO1 SLP432
SPECI CYNL 191343Z AUTO 00000KT 1SM CLR M41/M46 A3043 RMK AO1 SLP432
SPECI CYNL 191331Z AUTO 26003KT 5SM CLR M41/M46 A3044 RMK AO1 SLP434
SPECI CYNL 191330Z AUTO 26003KT 1 1/4SM CLR M41/M46 A3044 RMK AO1 SLP433
SPECI CYNL 191328Z AUTO 26002KT 5/8SM CLR M41/M46 A3044 RMK AO1 SLP433
SPECI CYNL 191327Z AUTO 26002KT 1SM CLR M41/M46 A3044 RMK AO1 SLP433
SPECI CYNL 191308Z AUTO 24003KT 5SM CLR M40/M46 A3043 RMK AO1 SLP431
SPECI CYNL 191305Z AUTO ///// 2 1/2SM CLR M40/M46 A3043 RMK AO1 SLP431
SPECI CYNL 191304Z AUTO ///// 3SM CLR M40/M46 A3043 RMK AO1 SLP431
SPECI CYNL 191303Z AUTO ///// 2SM CLR M40/M45 A3043 RMK AO1 SLP431
METAR CYNL 191300Z AUTO 00000KT 1/2SM CLR M40/M45 A3043 RMK AO1 SLP431
SPECI CYNL 191259Z AUTO 00000KT 1 1/2SM CLR M40/M45 A3043 RMK AO1 SLP431
SPECI CYNL 191223Z AUTO ///// 9SM CLR M40/M46 A3044 RMK AO1 SLP433
SPECI CYNL 191222Z AUTO ///// 1 3/4SM CLR M40/M46 A3044 RMK AO1 SLP433
SPECI CYNL 191215Z AUTO ///// 1/2SM CLR M40/M46 A3043 RMK AO1 SLP431
SPECI CYNL 191214Z AUTO ///// 1 1/4SM CLR M40/M46 A3043 RMK AO1 SLP431
SPECI CYNL 191213Z AUTO ///// 5SM CLR M40/M46 A3043 RMK AO1 SLP431
SPECI CYNL 191212Z AUTO ///// 1 1/4SM CLR M40/M46 A3043 RMK AO1 SLP432
SPECI CYNL 191211Z AUTO 24002KT 3/4SM CLR M40/M46 A3043 RMK AO1 SLP432
SPECI CYNL 191210Z AUTO 00000KT 1SM CLR M40/M46 A3043 RMK AO1 SLP432
METAR CYNL 191200Z AUTO 00000KT 9SM CLR M40/M46 A3044 RMK AO1 SLP434
SPECI CYNL 191125Z AUTO 00000KT 4SM CLR M39/M45 A3045 RMK AO1 SLP433
SPECI CYNL 191124Z AUTO 00000KT 1 1/2SM CLR M39/M44 A3044 RMK AO1 SLP432
SPECI CYNL 191121Z AUTO 00000KT 1 1/4SM CLR M39/M44 A3044 RMK AO1 SLP431
SPECI CYNL 191120Z AUTO ///// 1 1/2SM CLR M39/M44 A3044 RMK AO1 SLP432
SPECI CYNL 191117Z AUTO ///// 1 1/4SM CLR M39/M44 A3044 RMK AO1 SLP432
SPECI CYNL 191116Z AUTO 00000KT 1 1/2SM CLR M39/M44 A3044 RMK AO1 SLP432
SPECI CYNL 191115Z AUTO 00000KT 1 1/4SM CLR M39/M44 A3044 RMK AO1 SLP432
SPECI CYNL 191114Z AUTO 00000KT 1 3/4SM CLR M39/M44 A3044 RMK AO1 SLP432
METAR CYNL 191100Z AUTO 00003KT 9SM CLR M38/M44 A3044 RMK AO1 SLP429
SPECI CYNL 191036Z AUTO ///// 6SM CLR M38/M43 A3044 RMK AO1 SLP429
SPECI CYNL 191035Z AUTO ///// 2SM CLR M38/M43 A3044 RMK AO1 SLP429
SPECI CYNL 191034Z AUTO ///// 3/4SM CLR M38/M43 A3044 RMK AO1 SLP428
SPECI CYNL 191030Z AUTO ///// 5/8SM CLR M38/M43 A3044 RMK AO1 SLP429
SPECI CYNL 191029Z AUTO ///// 1SM CLR M38/M43 A3044 RMK AO1 SLP428
SPECI CYNL 191028Z AUTO ///// 1 1/2SM CLR M38/M43 A3044 RMK AO1 SLP428
METAR CYNL 191000Z AUTO 33003KT 9SM CLR M37/M42 A3044 RMK AO1 SLP428
SPECI CYNL 190939Z AUTO ///// 4SM CLR M37/M41 A3044 RMK AO1 SLP423
SPECI CYNL 190938Z AUTO ///// 2 1/2SM CLR M36/M41 A3044 RMK AO1 SLP423
SPECI CYNL 190936Z AUTO ///// 1 1/2SM CLR M37/M42 A3044 RMK AO1 SLP422
METAR CYNL 190900Z AUTO 31004KT 9SM CLR M36/M41 A3044 RMK AO1 SLP422
SPECI CYNL 190826Z AUTO 29002KT 3SM CLR M36/M41 A3043 RMK AO1 SLP420
SPECI CYNL 190825Z AUTO 00000KT 2SM CLR M36/M41 A3043 RMK AO1 SLP420
SPECI CYNL 190823Z AUTO ///// 1 1/4SM CLR M36/M41 A3043 RMK AO1 SLP418
SPECI CYNL 190821Z AUTO ///// 1 1/2SM CLR M36/M41 A3042 RMK AO1 SLP417
SPECI CYNL 190817Z AUTO ///// 1 1/4SM CLR M36/M41 A3042 RMK AO1 SLP416
SPECI CYNL 190815Z AUTO ///// 2 1/2SM CLR M36/M41 A3042 RMK AO1 SLP416
SPECI CYNL 190805Z AUTO 31002KT 5SM CLR M36/M41 A3042 RMK AO1 SLP416
SPECI CYNL 190804Z AUTO 31002KT 2 1/2SM CLR M36/M41 A3042 RMK AO1 SLP416
METAR CYNL 190800Z AUTO ///// 1 1/2SM CLR M36/M41 A3042 RMK AO1 SLP416
SPECI CYNL 190759Z AUTO ///// 1 1/2SM CLR M36/M41 A3042 RMK AO1 SLP416
SPECI CYNL 190758Z AUTO ///// 1SM CLR M36/M41 A3042 RMK AO1 SLP417
SPECI CYNL 190754Z AUTO ///// 3/8SM CLR M36/M41 A3042 RMK AO1 SLP417
SPECI CYNL 190753Z AUTO ///// 3/4SM CLR M36/M41 A3042 RMK AO1 SLP417
SPECI CYNL 190752Z AUTO ///// 2SM CLR M36/M41 A3042 RMK AO1 SLP417
SPECI CYNL 190749Z AUTO ///// 3SM CLR M36/M41 A3042 RMK AO1 SLP416
SPECI CYNL 190747Z AUTO ///// 2SM CLR M36/M41 A3042 RMK AO1 SLP416
SPECI CYNL 190746Z AUTO ///// 1 1/2SM CLR M36/M41 A3042 RMK AO1 SLP416
SPECI CYNL 190742Z AUTO ///// 1SM CLR M36/M41 A3042 RMK AO1 SLP417
SPECI CYNL 190739Z AUTO 33003KT 1 3/4SM CLR M36/M41 A3042 RMK AO1 SLP418
SPECI CYNL 190738Z AUTO 33003KT 2SM CLR M36/M41 A3042 RMK AO1 SLP418
SPECI CYNL 190722Z AUTO 30003KT 4SM CLR M36/M41 A3042 RMK AO1 SLP417
SPECI CYNL 190720Z AUTO 31003KT 2 1/2SM CLR M36/M41 A3042 RMK AO1 SLP417
METAR CYNL 190700Z AUTO ///// 9SM CLR M36/M41 A3042 RMK AO1 SLP416
METAR CYNL 190600Z AUTO 34003KT 9SM CLR M34/M39 A3041 RMK AO1 SLP412
METAR CYNL 190500Z AUTO 32004KT 9SM CLR M34/M38 A3039 RMK AO1 SLP407
METAR CYNL 190400Z AUTO 02003KT 9SM CLR M33/M38 A3038 RMK AO1 SLP404
METAR CYNL 190300Z AUTO ///// 9SM CLR M33/M37 A3036 RMK AO1 SLP398
METAR CYNL 190200Z AUTO ///// 9SM CLR M32/M36 A3035 RMK AO1 SLP396
METAR CYNL 190100Z AUTO ///// 9SM CLR M32/M37 A3035 RMK AO1 SLP394
METAR CYNL 190000Z AUTO ///// 9SM CLR M31/M36 A3034 RMK AO1 SLP390
METAR CYNL 182300Z AUTO 28005KT 9SM CLR M31/M35 A3033 RMK AO1 SLP385
METAR CYNL 182200Z AUTO 29006KT 9SM CLR M29/M34 A3032 RMK AO1 SLP380
METAR CYNL 182100Z AUTO 29004KT 9SM CLR M29/M33 A3031 RMK AO1 SLP376
METAR CYNL 182000Z AUTO 29006KT 9SM CLR M29/M34 A3031 RMK AO1 SLP379
METAR CYNL 181900Z AUTO 28004KT 9SM CLR M30/M35 A3031 RMK AO1 SLP379
METAR CYNL 181800Z AUTO 29008KT 9SM CLR M32/M37 A3029 RMK AO1 SLP375
METAR CYNL 181700Z AUTO ///// 9SM CLR M33/M38 A3028 RMK AO1 SLP373
SPECI CYNL 181610Z AUTO 29008KT 9SM SCT019 M34/M39 A3028 RMK AO1 SLP372
METAR CYNL 181600Z AUTO 30008KT 9SM BKN019 M35/M39 A3027 RMK AO1 SLP371
SPECI CYNL 181556Z AUTO 30008KT 9SM BKN019 M35/M39 A3027 RMK AO1 SLP371
METAR CYNL 181500Z AUTO 30006KT 9SM CLR M35/M40 A3028 RMK AO1 SLP373
METAR CYNL 181400Z AUTO 28006KT 9SM CLR M35/M40 A3027 RMK AO1 SLP372
METAR CYNL 181300Z AUTO 29009KT 9SM CLR M35/M40 A3027 RMK AO1 SLP371
METAR CYNL 181200Z AUTO 27002KT 9SM CLR M35/M40 A3027 RMK AO1 SLP371
METAR CYNL 181100Z AUTO 28006KT 9SM CLR M35/M40 A3028 RMK AO1 SLP370
METAR CYNL 181000Z AUTO 28007KT 9SM CLR M34/M39 A3027 RMK AO1 SLP368
METAR CYNL 180900Z AUTO 28005KT 9SM CLR M35/M40 A3027 RMK AO1 SLP368
METAR CYNL 180800Z AUTO 26003KT 9SM CLR M36/M40 A3028 RMK AO1 SLP367
METAR CYNL 180700Z AUTO 27005KT 9SM CLR M35/M40 A3027 RMK AO1 SLP364
METAR CYNL 180600Z AUTO 28003KT 9SM CLR M35/M39 A3025 RMK AO1 SLP358
METAR CYNL 180500Z AUTO 29004KT 9SM CLR M35/M40 A3025 RMK AO1 SLP359
METAR CYNL 180400Z AUTO 29006KT 9SM CLR M34/M39 A3025 RMK AO1 SLP359
METAR CYNL 180300Z AUTO 29008KT 9SM CLR M34/M39 A3024 RMK AO1 SLP358
METAR CYNL 180200Z AUTO 30006KT 9SM CLR M34/M38 A3024 RMK AO1 SLP357
METAR CYNL 180100Z AUTO 30005KT 9SM CLR M33/M38 A3024 RMK AO1 SLP356
METAR CYNL 180000Z AUTO 29006KT 9SM CLR M33/M37 A3023 RMK AO1 SLP350
METAR CYNL 172300Z AUTO 28003KT 9SM CLR M32/M37 A3022 RMK AO1 SLP347
METAR CYNL 172200Z AUTO 29006KT 9SM CLR M31/M36 A3021 RMK AO1 SLP342
SPECI CYNL 172155Z AUTO 28007KT 3SM CLR M31/M36 A3021 RMK AO1 SLP341
SPECI CYNL 172153Z AUTO 28007KT 1 1/4SM CLR M31/M35 A3021 RMK AO1 SLP341
SPECI CYNL 172152Z AUTO 28007KT 2SM CLR M31/M35 A3021 RMK AO1 SLP341
SPECI CYNL 172151Z AUTO 28008KT 1 1/2SM CLR M31/M35 A3021 RMK AO1 SLP341
SPECI CYNL 172149Z AUTO 28007KT 2 1/2SM FEW005 M31/M35 A3021 RMK AO1 SLP341
SPECI CYNL 172138Z AUTO 28009KT 6SM FEW005 M31/M35 A3021 RMK AO1 SLP340
SPECI CYNL 172136Z AUTO 28007KT 1 3/4SM SCT005 M31/M35 A3021 RMK AO1 SLP340
SPECI CYNL 172129Z AUTO 28009KT 8SM SCT005 M31/M35 A3021 RMK AO1 SLP340
SPECI CYNL 172128Z AUTO 28007KT 9SM BKN005 M31/M35 A3021 RMK AO1 SLP340
SPECI CYNL 172127Z AUTO 29006KT 9SM SCT005 M31/M35 A3021 RMK AO1 SLP340
METAR CYNL 172100Z AUTO 29008KT 8SM BKN005 M30/M35 A3020 RMK AO1 SLP335
SPECI CYNL 172044Z AUTO 29009KT 9SM BKN005 M30/M35 A3019 RMK AO1 SLP332
SPECI CYNL 172043Z AUTO 29010KT 8SM SCT005 M30/M35 A3019 RMK AO1 SLP332
SPECI CYNL 172042Z AUTO 29010KT 8SM VV004 M30/M35 A3019 RMK AO1 SLP332
SPECI CYNL 172036Z AUTO 28007KT 3SM SCT005 M30/M35 A3019 RMK AO1 SLP332
SPECI CYNL 172033Z AUTO 28009KT 2 1/2SM SCT005 M30/M35 A3019 RMK AO1 SLP332
SPECI CYNL 172030Z AUTO 29008KT 8SM VV005 M30/M35 A3019 RMK AO1 SLP331
METAR CYNL 172000Z AUTO 29006KT 9SM SCT005 M30/M35 A3018 RMK AO1 SLP328
SPECI CYNL 171945Z AUTO 29007KT 7SM SCT005 M30/M35 A3018 RMK AO1 SLP328
SPECI CYNL 171939Z AUTO 28008KT 7SM VV005 M30/M35 A3018 RMK AO1 SLP328
SPECI CYNL 171908Z AUTO 29008KT 8SM FEW005 M30/M35 A3018 RMK AO1 SLP328
METAR CYNL 171900Z AUTO 30008KT 8SM CLR M30/M35 A3018 RMK AO1 SLP328
SPECI CYNL 171815Z AUTO 29008KT 9SM FEW006 M31/M36 A3018 RMK AO1 SLP329
METAR CYNL 171800Z AUTO 29006KT 9SM CLR M31/M36 A3018 RMK AO1 SLP329
METAR CYNL 171700Z AUTO ///// 9SM CLR M33/M38 A3018 RMK AO1 PRESRR SLP332
METAR CYNL 171600Z AUTO 28007KT 9SM CLR M34/M38 A3016 RMK AO1 SLP326
METAR CYNL 171500Z AUTO 29007KT 7SM CLR M34/M38 A3014 RMK AO1 SLP320
SPECI CYNL 171447Z AUTO 28005KT 9SM CLR M34/M38 A3014 RMK AO1 SLP318
SPECI CYNL 171445Z AUTO 28006KT 2 1/2SM CLR M34/M38 A3014 RMK AO1 SLP318
SPECI CYNL 171432Z AUTO 29008KT 9SM CLR M34/M38 A3013 RMK AO1 SLP316
SPECI CYNL 171429Z AUTO ///// 1 1/2SM CLR M34/M38 A3013 RMK AO1 SLP316
SPECI CYNL 171427Z AUTO 28008KT 9SM CLR M34/M38 A3013 RMK AO1 SLP316
SPECI CYNL 171425Z AUTO 28008KT 2 1/2SM CLR M34/M38 A3013 RMK AO1 SLP316
METAR CYNL 171400Z AUTO 29008KT 9SM CLR M34/M38 A3014 RMK AO1 SLP318
SPECI CYNL 171302Z AUTO 28008KT 7SM SCT004 M33/M38 A3015 RMK AO1 SLP321
METAR CYNL 171300Z AUTO 29004KT 6SM BKN004 M33/M38 A3015 RMK AO1 SLP320
SPECI CYNL 171254Z AUTO ///// 6SM BKN004 M33/M38 A3015 RMK AO1 SLP319
SPECI CYNL 171250Z AUTO 29006KT 4SM VV005 M33/M38 A3014 RMK AO1 SLP318
SPECI CYNL 171223Z AUTO ///// 5SM VV004 M33/M38 A3014 RMK AO1 SLP317
SPECI CYNL 171215Z AUTO ///// 6SM VV005 M33/M38 A3014 RMK AO1 SLP316
METAR CYNL 171200Z AUTO ///// 6SM FEW004 M33/M38 A3015 RMK AO1 SLP318
SPECI CYNL 171115Z AUTO ///// 7SM SCT005 M33/M37 A3015 RMK AO1 SLP317
METAR CYNL 171100Z AUTO ///// 5SM VV005 M32/M37 A3015 RMK AO1 SLP317
SPECI CYNL 171041Z AUTO ///// 3SM VV005 M32/M37 A3014 RMK AO1 SLP315
SPECI CYNL 171036Z AUTO ///// 2SM VV005 M32/M37 A3015 RMK AO1 SLP315
SPECI CYNL 171031Z AUTO ///// 1 3/4SM VV006 M32/M37 A3015 RMK AO1 SLP315
SPECI CYNL 171021Z AUTO ///// 2 1/2SM VV007 M32/M36 A3014 RMK AO1 SLP314
METAR CYNL 171000Z AUTO ///// 3SM VV006 M32/M36 A3015 RMK AO1 SLP315
SPECI CYNL 170956Z AUTO ///// 3SM VV006 M32/M36 A3015 RMK AO1 SLP314
SPECI CYNL 170941Z AUTO ///// 2 1/2SM VV006 M32/M36 A3014 RMK AO1 SLP312
SPECI CYNL 170939Z AUTO ///// 3SM VV005 M32/M36 A3014 RMK AO1 SLP312
SPECI CYNL 170934Z AUTO ///// 2 1/2SM VV005 M32/M36 A3014 RMK AO1 SLP312
SPECI CYNL 170924Z AUTO 29008G16KT 3SM VV005 M32/M36 A3015 RMK AO1 SLP312
SPECI CYNL 170923Z AUTO 29009G16KT 2 1/2SM VV005 M32/M36 A3015 RMK AO1 SLP312
METAR CYNL 170900Z AUTO 30009G16KT 5SM VV005 M31/M36 A3014 RMK AO1 SLP312
SPECI CYNL 170846Z AUTO 29011KT 4SM VV005 M31/M36 A3014 RMK AO1 PRESFR SLP310
SPECI CYNL 170836Z AUTO 29009G18KT 4SM VV004 M31/M36 A3014 RMK AO1 PRESFR SLP310
SPECI CYNL 170827Z AUTO 28009KT 4SM VV005 M31/M36 A3013 RMK AO1 PRESFR SLP308
SPECI CYNL 170819Z AUTO ///// 5SM BKN004 M31/M36 A3014 RMK AO1 PRESFR SLP309
SPECI CYNL 170808Z AUTO ///// 5SM BKN005 M31/M36 A3013 RMK AO1 PRESFR SLP308
SPECI CYNL 170802Z AUTO ///// 5SM VV004 M31/M36 A3013 RMK AO1 PRESFR SLP307
METAR CYNL 170800Z AUTO ///// 5SM VV005 M31/M36 A3013 RMK AO1 PRESFR SLP307
METAR CYNL 170700Z AUTO 30010KT 3SM VV006 M31/M35 A3015 RMK AO1 SLP313
METAR CYNL 170600Z AUTO ///// 6SM VV006 M31/M35 A3015 RMK AO1 SLP314
SPECI CYNL 170547Z AUTO ///// 7SM VV005 M31/M35 A3015 RMK AO1 SLP313
SPECI CYNL 170542Z AUTO 29010KT 8SM FEW005 M31/M35 A3014 RMK AO1 SLP313
SPECI CYNL 170505Z AUTO 28008KT 9SM SCT025 M31/M35 A3015 RMK AO1 SLP315
METAR CYNL 170500Z AUTO 29007KT 9SM BKN025 M31/M35 A3015 RMK AO1 SLP315
SPECI CYNL 170410Z AUTO ///// 8SM FEW005 BKN027 M31/M35 A3016 RMK AO1 SLP320
SPECI CYNL 170401Z AUTO ///// 7SM FEW005 M31/M36 A3016 RMK AO1 SLP321
METAR CYNL 170400Z AUTO ///// 7SM FEW027 M31/M36 A3016 RMK AO1 SLP321
SPECI CYNL 170311Z AUTO 28007KT 9SM SCT004 M31/M35 A3017 RMK AO1 SLP325
SPECI CYNL 170309Z AUTO 29008KT 9SM BKN004 M31/M35 A3017 RMK AO1 SLP325
SPECI CYNL 170307Z AUTO 29007KT 9SM BKN005 M31/M35 A3017 RMK AO1 SLP325
SPECI CYNL 170303Z AUTO 29007KT 8SM VV004 M31/M35 A3017 RMK AO1 SLP324
METAR CYNL 170300Z AUTO 29007KT 8SM BKN005 M31/M35 A3017 RMK AO1 SLP325
SPECI CYNL 170250Z AUTO ///// 8SM VV005 M31/M35 A3017 RMK AO1 SLP325
SPECI CYNL 170232Z AUTO 30007KT 8SM BKN004 M31/M35 A3017 RMK AO1 SLP325
SPECI CYNL 170231Z AUTO 30007KT 8SM SCT004 M31/M35 A3017 RMK AO1 SLP324
SPECI CYNL 170229Z AUTO 30008KT 8SM SCT004 BKN006 M31/M35 A3017 RMK AO1 SLP325
SPECI CYNL 170204Z AUTO 30008KT 5SM VV004 M30/M35 A3017 RMK AO1 SLP326
SPECI CYNL 170201Z AUTO ///// 6SM VV005 M30/M35 A3017 RMK AO1 SLP325
METAR CYNL 170200Z AUTO ///// 6SM VV004 M30/M35 A3017 RMK AO1 SLP325
SPECI CYNL 170152Z AUTO 29008KT 7SM VV004 M30/M35 A3017 RMK AO1 SLP325
SPECI CYNL 170150Z AUTO 30009KT 7SM BKN005 M30/M35 A3017 RMK AO1 SLP325
SPECI CYNL 170144Z AUTO 30008KT 6SM VV004 M30/M35 A3017 RMK AO1 SLP325
METAR CYNL 170100Z AUTO 30006G15KT 4SM VV005 M30/M34 A3016 RMK AO1 SLP322
SPECI CYNL 170043Z AUTO 30008G16KT 3SM VV006 M30/M34 A3016 RMK AO1 SLP319
SPECI CYNL 170007Z AUTO 29009KT 2SM VV007 M29/M33 A3015 RMK AO1 SLP317
SPECI CYNL 170004Z AUTO 29008KT 1 3/4SM VV007 M29/M33 A3015 RMK AO1 SLP317
SPECI CYNL 170002Z AUTO 29007KT 2SM VV007 M29/M33 A3015 RMK AO1 SLP317
SPECI CYNL 170001Z AUTO 29007KT 1 3/4SM VV007 M29/M33 A3015 RMK AO1 SLP318
METAR CYNL 170000Z AUTO 29007KT 2SM VV007 M29/M33 A3016 RMK AO1 SLP318
SPECI CYNL 162355Z AUTO 29008KT 2 1/2SM VV007 M29/M33 A3016 RMK AO1 SLP318
SPECI CYNL 162331Z AUTO 29008KT 3SM VV006 M29/M33 A3015 RMK AO1 SLP317
SPECI CYNL 162325Z AUTO 29006KT 2SM VV007 M29/M33 A3015 RMK AO1 SLP317
SPECI CYNL 162314Z AUTO 29008KT 1 3/4SM VV007 M29/M33 A3015 RMK AO1 SLP316
SPECI CYNL 162311Z AUTO 28007KT 2 1/2SM VV007 M29/M33 A3015 RMK AO1 SLP316
METAR CYNL 162300Z AUTO 29007KT 5SM VV006 M29/M33 A3015 RMK AO1 SLP315
SPECI CYNL 162246Z AUTO 29008KT 3SM VV005 M28/M33 A3015 RMK AO1 SLP315
SPECI CYNL 162240Z AUTO 29006KT 2SM VV006 M28/M32 A3015 RMK AO1 SLP315
SPECI CYNL 162226Z AUTO 29008KT 1 3/4SM VV007 M28/M32 A3015 RMK AO1 SLP316
SPECI CYNL 162222Z AUTO 28007KT 2 1/2SM VV008 M28/M32 A3015 RMK AO1 SLP316
SPECI CYNL 162212Z AUTO 28008KT 9SM VV006 M28/M32 A3015 RMK AO1 SLP315
SPECI CYNL 162211Z AUTO 28005KT 9SM FEW006 BKN011 M28/M32 A3015 RMK AO1 SLP315
SPECI CYNL 162210Z AUTO 28005KT 9SM FEW006 SCT011 M28/M32 A3015 RMK AO1 SLP316
SPECI CYNL 162208Z AUTO 28004KT 8SM FEW006 BKN011 M28/M32 A3015 RMK AO1 SLP315
SPECI CYNL 162206Z AUTO 28005KT 9SM FEW007 SCT011 M28/M32 A3015 RMK AO1 SLP315
SPECI CYNL 162203Z AUTO 27007KT 7SM SCT011 M28/M32 A3015 RMK AO1 SLP314
METAR CYNL 162200Z AUTO 27007KT 8SM BKN011 M28/M32 A3015 RMK AO1 SLP313
SPECI CYNL 162141Z AUTO 29005KT 3SM FEW008 OVC011 M28/M32 A3016 RMK AO1 SLP317
SPECI CYNL 162130Z AUTO 29005KT 2 1/2SM FEW006 OVC011 M28/M32 A3015 RMK AO1 SLP316
SPECI CYNL 162129Z AUTO 29006KT 3SM FEW006 OVC011 M28/M32 A3015 RMK AO1 SLP317
SPECI CYNL 162127Z AUTO 29008KT 2 1/2SM FEW006 OVC011 M28/M32 A3015 RMK AO1 SLP317
SPECI CYNL 162126Z AUTO 29009KT 3SM VV009 M28/M32 A3015 RMK AO1 SLP316
SPECI CYNL 162118Z AUTO 28007KT 3SM OVC011 M28/M32 A3016 RMK AO1 SLP317
SPECI CYNL 162116Z AUTO 28009KT 2 1/2SM OVC011 M28/M32 A3016 RMK AO1 SLP317
METAR CYNL 162100Z AUTO 28007KT 3SM OVC011 M28/M32 A3015 RMK AO1 SLP316
SPECI CYNL 162044Z AUTO 28008KT 3SM OVC011 M27/M32 A3016 RMK AO1 SLP317
SPECI CYNL 162041Z AUTO 28006KT 2 1/2SM OVC011 M27/M32 A3016 RMK AO1 SLP317
METAR CYNL 162000Z AUTO 28006KT 9SM OVC010 M28/M32 A3016 RMK AO1 SLP319
SPECI CYNL 161916Z AUTO 28006KT 6SM SCT008 OVC011 M28/M32 A3017 RMK AO1 SLP326
METAR CYNL 161900Z AUTO 27009KT 8SM VV007 M28/M32 A3017 RMK AO1 SLP325
METAR CYNL 161800Z AUTO 28008KT 9SM OVC007 M29/M33 A3018 RMK AO1 SLP330
METAR CYNL 161700Z AUTO 28007KT 9SM OVC006 M30/M34 A3018 RMK AO1 SLP330
SPECI CYNL 161640Z AUTO 27006KT 9SM SCT007 BKN009 M30/M35 A3018 RMK AO1 SLP333
SPECI CYNL 161638Z AUTO 27006KT 9SM SCT007 BKN010 M30/M35 A3018 RMK AO1 SLP333
SPECI CYNL 161637Z AUTO 27006KT 9SM SCT007 BKN009 M30/M35 A3018 RMK AO1 SLP333
SPECI CYNL 161633Z AUTO 27007KT 9SM SCT008 BKN011 M31/M35 A3019 RMK AO1 SLP334
SPECI CYNL 161628Z AUTO 28005KT 9SM FEW009 SCT011 M31/M35 A3019 RMK AO1 SLP335
METAR CYNL 161600Z AUTO 28007KT 9SM SCT013 M31/M35 A3019 RMK AO1 SLP337
SPECI CYNL 161557Z AUTO 28008KT 9SM SCT013 M31/M35 A3019 RMK AO1 SLP336
SPECI CYNL 161524Z AUTO ///// 9SM FEW008 OVC010 M31/M35 A3019 RMK AO1 SLP335
SPECI CYNL 161523Z AUTO 28008KT 9SM OVC010 M31/M35 A3019 RMK AO1 SLP335
SPECI CYNL 161515Z AUTO ///// 9SM OVC009 M31/M35 A3019 RMK AO1 SLP337
SPECI CYNL 161514Z AUTO ///// 9SM SCT008 OVC010 M31/M35 A3019 RMK AO1 SLP337
METAR CYNL 161500Z AUTO ///// 9SM BKN009 M31/M36 A3020 RMK AO1 SLP339
SPECI CYNL 161403Z AUTO ///// 9SM BKN009 M32/M36 A3020 RMK AO1 SLP341
METAR CYNL 161400Z AUTO ///// 9SM SCT009 M32/M36 A3020 RMK AO1 SLP341
SPECI CYNL 161352Z AUTO ///// 9SM FEW009 M32/M36 A3020 RMK AO1 SLP341
METAR CYNL 161300Z AUTO ///// 9SM CLR M31/M35 A3021 RMK AO1 SLP342
METAR CYNL 161200Z AUTO ///// 9SM CLR M31/M35 A3021 RMK AO1 SLP346
METAR CYNL 161100Z AUTO ///// 9SM CLR M32/M36 A3023 RMK AO1 SLP349
METAR CYNL 161000Z AUTO ///// 9SM CLR M32/M37 A3024 RMK AO1 SLP349
METAR CYNL 160900Z AUTO ///// 9SM CLR M32/M36 A3024 RMK AO1 SLP346
METAR CYNL 160800Z AUTO 29006KT 9SM CLR M33/M38 A3025 RMK AO1 SLP353
METAR CYNL 160700Z AUTO 24002KT 9SM CLR M34/M39 A3026 RMK AO1 SLP357
METAR CYNL 160600Z AUTO 24004KT 9SM CLR M34/M39 A3027 RMK AO1 SLP363
METAR CYNL 160500Z AUTO 26004KT 9SM CLR M34/M39 A3029 RMK AO1 SLP370
METAR CYNL 160400Z AUTO 25005KT 9SM CLR M34/M39 A3030 RMK AO1 SLP378
METAR CYNL 160300Z AUTO 26003KT 9SM CLR M34/M39 A3032 RMK AO1 SLP389
METAR CYNL 160200Z AUTO 27003KT 9SM CLR M34/M38 A3033 RMK AO1 SLP393
SPECI CYNL 160103Z AUTO 28004KT 3SM CLR M35/M40 A3033 RMK AO1 SLP397
SPECI CYNL 160102Z AUTO 28004KT 1 3/4SM CLR M35/M40 A3033 RMK AO1 SLP397
METAR CYNL 160100Z AUTO 27004KT 1SM CLR M35/M39 A3033 RMK AO1 SLP397
SPECI CYNL 160059Z AUTO 27005KT 3/4SM CLR M35/M39 A3033 RMK AO1 SLP396
SPECI CYNL 160058Z AUTO 27005KT 1SM CLR M35/M39 A3033 RMK AO1 SLP395
SPECI CYNL 160042Z AUTO 28003KT 9SM CLR M35/M40 A3033 RMK AO1 SLP396
SPECI CYNL 160041Z AUTO 27003KT 2 1/2SM CLR M35/M40 A3033 RMK AO1 SLP396
SPECI CYNL 160040Z AUTO 27003KT 1 3/4SM CLR M35/M40 A3033 RMK AO1 SLP396
SPECI CYNL 160039Z AUTO 27003KT 2SM CLR M35/M40 A3034 RMK AO1 SLP396
METAR CYNL 160000Z AUTO 27002KT 9SM CLR M34/M38 A3035 RMK AO1 SLP397
METAR CYNL 152300Z AUTO 26003KT 9SM CLR M31/M36 A3035 RMK AO1 SLP393
METAR CYNL 152200Z AUTO 31003KT 9SM CLR M29/M33 A3035 RMK AO1 SLP387
METAR CYNL 152100Z AUTO ///// 9SM CLR M28/M32 A3036 RMK AO1 SLP387
METAR CYNL 152000Z AUTO ///// 9SM CLR M28/M33 A3037 RMK AO1 SLP390
METAR CYNL 151900Z AUTO 29004KT 9SM CLR M30/M34 A3038 RMK AO1 SLP393
METAR CYNL 151800Z AUTO ///// 9SM CLR M31/M36 A3038 RMK AO1 SLP395
METAR CYNL 151700Z AUTO 27004KT 9SM CLR M34/M38 A3038 RMK AO1 SLP395
METAR CYNL 151600Z AUTO 28003KT 9SM CLR M37/M41 A3038 RMK AO1 SLP397
METAR CYNL 151500Z AUTO ///// 9SM CLR M37/M42 A3037 RMK AO1 SLP393
SPECI CYNL 151403Z AUTO ///// 3SM CLR M38/M43 A3035 RMK AO1 SLP387
SPECI CYNL 151402Z AUTO ///// 2 1/2SM CLR M38/M43 A3035 RMK AO1 SLP387
METAR CYNL 151400Z AUTO 25003KT 9SM CLR M37/M42 A3035 RMK AO1 SLP387
METAR CYNL 151300Z AUTO ///// 9SM CLR M36/M41 A3034 RMK AO1 SLP381
METAR CYNL 151200Z AUTO 24004KT 9SM CLR M35/M40 A3033 RMK AO1 SLP376
METAR CYNL 151100Z AUTO ///// 9SM CLR M34/M39 A3032 RMK AO1 PRESRR SLP369
METAR CYNL 151000Z AUTO 00005KT 9SM CLR M33/M37 A3030 RMK AO1 SLP362
METAR CYNL 150900Z AUTO ///// 9SM CLR M31/M36 A3028 RMK AO1 PRESRR SLP352
METAR CYNL 150800Z AUTO ///// 9SM CLR M30/M34 A3024 RMK AO1 PRESRR SLP340
METAR CYNL 150700Z AUTO 01006KT 9SM CLR M28/M33 A3022 RMK AO1 SLP329
METAR CYNL 150600Z AUTO 01007KT 9SM CLR M27/M31 A3020 RMK AO1 PRESRR SLP319
METAR CYNL 150500Z AUTO 01009KT 9SM CLR M26/M30 A3015 RMK AO1 PRESRR SLP302
SPECI CYNL 150414Z AUTO 03008KT 9SM FEW007 SCT009 M25/M29 A3013 RMK AO1 PRESRR SLP294
SPECI CYNL 150412Z AUTO 02010KT 9SM FEW007 SCT009 BKN016 M25/M29 A3013 RMK AO1 PRESRR SLP293
SPECI CYNL 150407Z AUTO 03009KT 9SM FEW007 SCT009 BKN012 M25/M29 A3013 RMK AO1 PRESRR SLP292
METAR CYNL 150400Z AUTO ///// 5SM VV009 M25/M29 A3013 RMK AO1 PRESRR SLP293
SPECI CYNL 150359Z AUTO ///// 5SM VV009 M25/M29 A3013 RMK AO1 PRESRR SLP293
SPECI CYNL 150350Z AUTO ///// 3SM VV014 M24/M28 A3011 RMK AO1 PRESRR SLP290
SPECI CYNL 150345Z AUTO 02009KT 2 1/2SM VV018 M24/M28 A3011 RMK AO1 PRESRR SLP288
SPECI CYNL 150337Z AUTO 03009KT 5SM VV016 M24/M28 A3011 RMK AO1 PRESRR SLP287
SPECI CYNL 150321Z AUTO ///// 3SM VV013 M24/M28 A3010 RMK AO1 PRESRR SLP284
SPECI CYNL 150318Z AUTO 03008KT 2 1/2SM VV014 M24/M28 A3010 RMK AO1 PRESRR SLP282
SPECI CYNL 150304Z AUTO ///// 2SM VV016 M24/M27 A3009 RMK AO1 PRESRR SLP278
SPECI CYNL 150301Z AUTO ///// 1 1/2SM VV015 M24/M27 A3008 RMK AO1 PRESRR SLP277
METAR CYNL 150300Z AUTO ///// 1 1/2SM VV014 M24/M27 A3008 RMK AO1 PRESRR SLP277
SPECI CYNL 150252Z AUTO 04008KT 1 3/4SM VV014 M24/M27 A3007 RMK AO1 PRESRR SLP276
SPECI CYNL 150250Z AUTO ///// 1 3/4SM VV015 M24/M27 A3007 RMK AO1 PRESRR SLP275
SPECI CYNL 150233Z AUTO ///// 2 1/2SM VV015 M24/M28 A3006 RMK AO1 PRESRR SLP272
SPECI CYNL 150229Z AUTO ///// 2SM VV014 M24/M28 A3006 RMK AO1 PRESRR SLP271
SPECI CYNL 150224Z AUTO ///// 1 1/2SM VV014 M24/M28 A3006 RMK AO1 PRESRR SLP270
SPECI CYNL 150219Z AUTO ///// 1 3/4SM VV016 M24/M28 A3006 RMK AO1 PRESRR SLP269
SPECI CYNL 150208Z AUTO ///// 2SM VV015 M24/M28 A3005 RMK AO1 PRESRR SLP267
METAR CYNL 150200Z AUTO ///// 1 1/2SM VV013 M24/M28 A3005 RMK AO1 PRESRR SLP266
SPECI CYNL 150155Z AUTO ///// 1 1/2SM VV012 M24/M28 A3004 RMK AO1 PRESRR SLP265
SPECI CYNL 150133Z AUTO ///// 1SM VV010 M24/M27 A3003 RMK AO1 PRESRR SLP262
SPECI CYNL 150126Z AUTO ///// 3/4SM VV011 M23/M27 A3003 RMK AO1 PRESRR SLP260
SPECI CYNL 150117Z AUTO ///// 1 1/4SM VV014 M23/M27 A3002 RMK AO1 PRESRR SLP259
SPECI CYNL 150116Z AUTO ///// 1 1/4SM VV015 M23/M27 A3002 RMK AO1 PRESRR SLP258
SPECI CYNL 150112Z AUTO ///// 1 1/2SM VV016 M23/M27 A3003 RMK AO1 PRESRR SLP259
SPECI CYNL 150111Z AUTO ///// 1 1/4SM VV016 M23/M27 A3003 RMK AO1 PRESRR SLP259
METAR CYNL 150100Z AUTO ///// 1 1/2SM VV015 M24/M27 A3002 RMK AO1 PRESRR SLP258
SPECI CYNL 150055Z AUTO ///// 1 1/2SM VV015 M24/M27 A3002 RMK AO1 SLP260
SPECI CYNL 150053Z AUTO 05008KT 1 1/2SM VV014 M24/M27 A3002 RMK AO1 SLP260
SPECI CYNL 150041Z AUTO 06009KT 1SM VV011 M24/M27 A3001 RMK AO1 SLP258
SPECI CYNL 150030Z AUTO 06008KT 3/4SM VV012 M24/M28 A3001 RMK AO1 SLP257
SPECI CYNL 150028Z AUTO 06008KT 1SM VV012 M24/M28 A3001 RMK AO1 SLP257
SPECI CYNL 150015Z AUTO 06009KT 3/4SM VV010 M24/M28 A3001 RMK AO1 SLP256
SPECI CYNL 150013Z AUTO ///// 5/8SM VV010 M24/M28 A3001 RMK AO1 SLP255
METAR CYNL 150000Z AUTO 06008KT 3/4SM VV010 M24/M28 A3000 RMK AO1 SLP254
SPECI CYNL 142359Z AUTO ///// 3/4SM VV010 M24/M28 A3000 RMK AO1 SLP254
SPECI CYNL 142358Z AUTO ///// 5/8SM VV009 M24/M28 A3000 RMK AO1 SLP254
SPECI CYNL 142357Z AUTO 06009KT 3/4SM VV009 M24/M28 A3000 RMK AO1 SLP255
SPECI CYNL 142350Z AUTO 07009KT 5/8SM VV009 M24/M28 A3000 RMK AO1 SLP254
SPECI CYNL 142347Z AUTO 07008KT 3/4SM VV009 M24/M28 A3000 RMK AO1 SLP254
SPECI CYNL 142345Z AUTO 07008KT 5/8SM VV009 M24/M28 A3000 RMK AO1 SLP253
SPECI CYNL 142340Z AUTO 06008KT 5/8SM VV010 M24/M28 A3000 RMK AO1 SLP254
SPECI CYNL 142337Z AUTO 06007KT 3/4SM VV010 M24/M28 A3000 RMK AO1 SLP254
SPECI CYNL 142326Z AUTO 06008KT 5/8SM VV009 M24/M28 A3000 RMK AO1 SLP253
SPECI CYNL 142325Z AUTO 06007KT 5/8SM VV010 M24/M28 A3000 RMK AO1 SLP253
SPECI CYNL 142322Z AUTO 06008KT 3/4SM VV011 M24/M28 A3000 RMK AO1 SLP253
SPECI CYNL 142316Z AUTO 07009KT 1SM VV010 M24/M28 A3000 RMK AO1 SLP254
SPECI CYNL 142315Z AUTO 06008KT 3/4SM VV010 M24/M28 A3000 RMK AO1 SLP254
SPECI CYNL 142313Z AUTO 06008KT 3/4SM VV009 M24/M28 A3000 RMK AO1 SLP254
SPECI CYNL 142303Z AUTO 07008KT 5/8SM VV009 M24/M28 A3000 RMK AO1 SLP254
METAR CYNL 142300Z AUTO 07009KT 5/8SM VV011 M24/M28 A3000 RMK AO1 SLP254
SPECI CYNL 142259Z AUTO 06008KT 3/4SM VV011 M24/M28 A3000 RMK AO1 SLP255
SPECI CYNL 142249Z AUTO 07008KT 1SM VV011 M24/M28 A3000 RMK AO1 SLP255
SPECI CYNL 142248Z AUTO 07008KT 3/4SM VV010 M24/M28 A3000 RMK AO1 SLP255
SPECI CYNL 142234Z AUTO 09009KT 3/4SM VV008 M24/M28 A3000 RMK AO1 SLP255
SPECI CYNL 142232Z AUTO 08008KT 1SM VV009 M24/M28 A3000 RMK AO1 SLP255
SPECI CYNL 142230Z AUTO 08008KT 1SM VV010 M24/M28 A3000 RMK AO1 SLP254
SPECI CYNL 142225Z AUTO 08006KT 1 3/4SM VV013 M24/M28 A3000 RMK AO1 SLP254
SPECI CYNL 142223Z AUTO 08008KT 2 1/2SM VV014 M24/M28 A3000 RMK AO1 SLP254
SPECI CYNL 142218Z AUTO 08008KT 2SM VV015 M24/M28 A2999 RMK AO1 SLP254
SPECI CYNL 142217Z AUTO 08008KT 2SM VV014 M24/M28 A2999 RMK AO1 SLP254
SPECI CYNL 142211Z AUTO 08008KT 1 1/2SM VV010 M24/M28 A3000 RMK AO1 SLP255
SPECI CYNL 142210Z AUTO 08008KT 1 1/4SM VV010 M24/M28 A3000 RMK AO1 SLP255
METAR CYNL 142200Z AUTO 08008KT 1SM VV008 M24/M28 A3000 RMK AO1 SLP257
SPECI CYNL 142154Z AUTO 08007KT 1SM VV008 M24/M28 A3001 RMK AO1 PRESFR SLP259
SPECI CYNL 142151Z AUTO 08007KT 3/4SM VV008 M24/M28 A3002 RMK AO1 PRESFR SLP261
SPECI CYNL 142148Z AUTO 09006KT 1SM VV009 M24/M28 A3002 RMK AO1 PRESFR SLP261
SPECI CYNL 142135Z AUTO 08007KT 1 1/4SM VV014 M24/M28 A3001 RMK AO1 PRESFR SLP260
SPECI CYNL 142134Z AUTO 08008KT 1 1/2SM VV014 M24/M28 A3001 RMK AO1 PRESFR SLP260
SPECI CYNL 142133Z AUTO 08007KT 1 1/4SM VV014 M24/M28 A3001 RMK AO1 PRESFR SLP260
SPECI CYNL 142127Z AUTO 08007KT 1 1/2SM VV014 M24/M28 A3002 RMK AO1 PRESFR SLP261
SPECI CYNL 142126Z AUTO 07006KT 1 1/4SM VV014 M24/M28 A3002 RMK AO1 PRESFR SLP262
SPECI CYNL 142122Z AUTO 08008KT 1 1/2SM VV014 M24/M28 A3002 RMK AO1 PRESFR SLP262
METAR CYNL 142100Z AUTO 09006KT 1SM VV011 M24/M28 A3001 RMK AO1 PRESFR SLP259
SPECI CYNL 142024Z AUTO 08008KT 1SM VV011 M24/M28 A3003 RMK AO1 PRESFR SLP266
SPECI CYNL 142020Z AUTO ///// 3/4SM VV010 M24/M28 A3003 RMK AO1 PRESFR SLP267
SPECI CYNL 142017Z AUTO ///// 1SM VV010 M24/M28 A3004 RMK AO1 PRESFR SLP267
SPECI CYNL 142012Z AUTO 08007KT 3/4SM VV011 M24/M28 A3004 RMK AO1 PRESFR SLP268
METAR CYNL 142000Z AUTO 08008KT 1SM VV012 M24/M28 A3005 RMK AO1 PRESFR SLP272
SPECI CYNL 141932Z AUTO 09008KT 1SM VV013 M24/M28 A3006 RMK AO1 PRESFR SLP275
SPECI CYNL 141930Z AUTO 09007KT 3/4SM VV013 M24/M28 A3006 RMK AO1 PRESFR SLP276
SPECI CYNL 141921Z AUTO 09007KT 1SM VV013 M24/M28 A3007 RMK AO1 PRESFR SLP277
SPECI CYNL 141919Z AUTO 09008KT 3/4SM VV012 M24/M28 A3007 RMK AO1 PRESFR SLP278
SPECI CYNL 141917Z AUTO 09007KT 1SM VV012 M24/M28 A3007 RMK AO1 PRESFR SLP279
SPECI CYNL 141914Z AUTO 09007KT 3/4SM VV012 M24/M28 A3007 RMK AO1 PRESFR SLP279
SPECI CYNL 141913Z AUTO 09007KT 5/8SM VV012 M24/M28 A3007 RMK AO1 PRESFR SLP279
SPECI CYNL 141910Z AUTO 09007KT 3/4SM VV012 M24/M28 A3007 RMK AO1 PRESFR SLP279
SPECI CYNL 141905Z AUTO 09008KT 1SM VV011 M24/M28 A3008 RMK AO1 PRESFR SLP280
SPECI CYNL 141904Z AUTO 08007KT 3/4SM VV011 M24/M28 A3008 RMK AO1 PRESFR SLP280
SPECI CYNL 141902Z AUTO ///// 5/8SM VV011 M24/M28 A3008 RMK AO1 PRESFR SLP280
METAR CYNL 141900Z AUTO ///// 3/4SM VV011 M24/M28 A3008 RMK AO1 PRESFR SLP281
SPECI CYNL 141856Z AUTO 09005KT 3/4SM VV012 M24/M28 A3008 RMK AO1 PRESFR SLP279
SPECI CYNL 141854Z AUTO 09006KT 1SM VV011 M24/M28 A3008 RMK AO1 PRESFR SLP279
SPECI CYNL 141853Z AUTO 09005KT 3/4SM VV011 M24/M28 A3008 RMK AO1 PRESFR SLP280
SPECI CYNL 141851Z AUTO 09006KT 5/8SM VV010 M24/M28 A3008 RMK AO1 PRESFR SLP280
SPECI CYNL 141845Z AUTO 09006KT 5/8SM VV009 M24/M28 A3009 RMK AO1 PRESFR SLP281
SPECI CYNL 141841Z AUTO 09006KT 5/8SM VV010 M24/M28 A3009 RMK AO1 PRESFR SLP282
SPECI CYNL 141835Z AUTO 09006KT 3/4SM VV011 M24/M28 A3009 RMK AO1 PRESFR SLP283
SPECI CYNL 141833Z AUTO 09004KT 1SM VV010 M24/M28 A3009 RMK AO1 PRESFR SLP283
SPECI CYNL 141830Z AUTO 09006KT 3/4SM VV009 M24/M28 A3009 RMK AO1 PRESFR SLP284
SPECI CYNL 141825Z AUTO 09007KT 5/8SM VV009 M24/M28 A3010 RMK AO1 PRESFR SLP285
SPECI CYNL 141823Z AUTO 09007KT 3/4SM VV009 M24/M28 A3010 RMK AO1 PRESFR SLP285
SPECI CYNL 141822Z AUTO 09006KT 1SM VV009 M24/M28 A3010 RMK AO1 PRESFR SLP286
SPECI CYNL 141818Z AUTO 09005KT 3/4SM VV010 M24/M28 A3010 RMK AO1 PRESFR SLP287
SPECI CYNL 141817Z AUTO ///// 3/4SM VV009 M24/M28 A3010 RMK AO1 PRESFR SLP287
SPECI CYNL 141814Z AUTO 09004KT 5/8SM VV010 M24/M28 A3010 RMK AO1 PRESFR SLP288
SPECI CYNL 141812Z AUTO 09004KT 3/4SM VV010 M24/M28 A3011 RMK AO1 PRESFR SLP288
SPECI CYNL 141808Z AUTO 10005KT 1SM VV011 M25/M28 A3011 RMK AO1 PRESFR SLP288
SPECI CYNL 141805Z AUTO 10006KT 3/4SM VV010 M25/M28 A3011 RMK AO1 PRESFR SLP289
SPECI CYNL 141804Z AUTO 09007KT 3/4SM VV009 M25/M28 A3011 RMK AO1 PRESFR SLP289
SPECI CYNL 141802Z AUTO 09008KT 5/8SM VV009 M25/M28 A3011 RMK AO1 PRESFR SLP289
SPECI CYNL 141801Z AUTO 09008KT 5/8SM VV010 M25/M28 A3011 RMK AO1 PRESFR SLP289
METAR CYNL 141800Z AUTO 09006KT 3/4SM VV010 M25/M28 A3011 RMK AO1 PRESFR SLP290
SPECI CYNL 141749Z AUTO 09007KT 3/4SM VV011 M24/M28 A3012 RMK AO1 PRESFR SLP290
SPECI CYNL 141732Z AUTO 09005KT 1 1/4SM VV013 M24/M28 A3013 RMK AO1 PRESFR SLP295
SPECI CYNL 141730Z AUTO 09005KT 1 3/4SM VV014 M25/M28 A3013 RMK AO1 PRESFR SLP295
SPECI CYNL 141729Z AUTO 09006KT 1 3/4SM VV016 M25/M28 A3013 RMK AO1 PRESFR SLP295
SPECI CYNL 141720Z AUTO 09006KT 2SM VV017 M25/M28 A3014 RMK AO1 PRESFR SLP297
SPECI CYNL 141718Z AUTO 09006KT 1 3/4SM VV017 M25/M28 A3014 RMK AO1 PRESFR SLP298
METAR CYNL 141700Z AUTO 09006KT 2SM VV021 M25/M29 A3015 RMK AO1 PRESFR SLP302
SPECI CYNL 141654Z AUTO 08006KT 2SM VV021 M25/M29 A3015 RMK AO1 PRESFR SLP303
SPECI CYNL 141650Z AUTO 08006KT 1 3/4SM VV021 M25/M29 A3015 RMK AO1 PRESFR SLP303
SPECI CYNL 141646Z AUTO 08005KT 2SM VV021 M25/M29 A3016 RMK AO1 PRESFR SLP305
SPECI CYNL 141644Z AUTO 08006KT 1 3/4SM VV021 M25/M29 A3016 RMK AO1 PRESFR SLP305
SPECI CYNL 141633Z AUTO 08004KT 2 1/2SM VV019 M25/M29 A3017 RMK AO1 PRESFR SLP308
SPECI CYNL 141627Z AUTO 09004KT 4SM VV015 M25/M29 A3017 RMK AO1 PRESFR SLP310
SPECI CYNL 141625Z AUTO 09004KT 5SM VV013 M25/M29 A3018 RMK AO1 PRESFR SLP311
SPECI CYNL 141621Z AUTO 09004KT 4SM FEW007 M25/M29 A3018 RMK AO1 PRESFR SLP312
METAR CYNL 141600Z AUTO 10003KT 9SM CLR M26/M30 A3019 RMK AO1 PRESFR SLP317
METAR CYNL 141500Z AUTO ///// 9SM CLR M27/M30 A3023 RMK AO1 SLP329
METAR CYNL 141400Z AUTO 08003KT 9SM CLR M27/M30 A3024 RMK AO1 SLP335
METAR CYNL 141300Z AUTO ///// 9SM CLR M29/M33 A3026 RMK AO1 PRESFR SLP343
METAR CYNL 141200Z AUTO 00000KT 9SM CLR M29/M33 A3028 RMK AO1 SLP351
METAR CYNL 141100Z AUTO 00000KT 9SM CLR M31/M35 A3030 RMK AO1 SLP358
METAR CYNL 141000Z AUTO 00000KT 9SM CLR M30/M34 A3031 RMK AO1 PRESFR SLP361
METAR CYNL 140900Z AUTO 00000KT 9SM CLR M30/M34 A3034 RMK AO1 SLP365
METAR CYNL 140800Z AUTO ///// 9SM CLR M29/M33 A3035 RMK AO1 SLP366
METAR CYNL 140700Z AUTO 00000KT 9SM CLR M27/M31 A3035 RMK AO1 SLP364
METAR CYNL 140600Z AUTO 00000KT 9SM CLR M26/M30 A3036 RMK AO1 SLP365
METAR CYNL 140500Z AUTO ///// 9SM CLR M25/M29 A3035 RMK AO1 SLP362
METAR CYNL 140400Z AUTO ///// 9SM CLR M25/M28 A3035 RMK AO1 SLP362
METAR CYNL 140300Z AUTO 31003KT 9SM CLR M24/M28 A3034 RMK AO1 SLP358
METAR CYNL 140200Z AUTO ///// 9SM CLR M23/M27 A3033 RMK AO1 SLP353
METAR CYNL 140100Z AUTO ///// 9SM CLR M23/M27 A3033 RMK AO1 SLP348
METAR CYNL 140000Z AUTO 29005KT 9SM CLR M23/M26 A3033 RMK AO1 SLP347
METAR CYNL 132300Z AUTO ///// 9SM CLR M22/M26 A3033 RMK AO1 SLP346
METAR CYNL 132200Z AUTO ///// 9SM CLR M20/M24 A3031 RMK AO1 SLP336
METAR CYNL 132100Z AUTO 30009KT 9SM CLR M19/M23 A3029 RMK AO1 PRESRR SLP328
METAR CYNL 132000Z AUTO 31006KT 9SM CLR M18/M22 A3027 RMK AO1 SLP317
METAR CYNL 131900Z AUTO 31009KT 9SM SCT005 M19/M22 A3026 RMK AO1 SLP315
SPECI CYNL 131857Z AUTO ///// 9SM SCT005 M19/M22 A3026 RMK AO1 SLP314
SPECI CYNL 131821Z AUTO 31007KT 4SM SCT003 OVC005 M19/M22 A3026 RMK AO1 SLP314
SPECI CYNL 131820Z AUTO 31006KT 4SM OVC004 M19/M23 A3026 RMK AO1 SLP314
SPECI CYNL 131816Z AUTO 30008KT 4SM SCT004 OVC005 M19/M23 A3026 RMK AO1 SLP313
SPECI CYNL 131815Z AUTO 30008KT 4SM OVC004 M19/M23 A3026 RMK AO1 SLP314
SPECI CYNL 131802Z AUTO 30008KT 6SM VV005 M19/M23 A3025 RMK AO1 SLP311
METAR CYNL 131800Z AUTO 31007KT 7SM VV004 M19/M23 A3025 RMK AO1 SLP310
SPECI CYNL 131739Z AUTO ///// 8SM VV004 M19/M23 A3025 RMK AO1 SLP310
SPECI CYNL 131732Z AUTO ///// 7SM VV005 M19/M23 A3025 RMK AO1 SLP310
SPECI CYNL 131723Z AUTO 31008KT 5SM VV004 M19/M23 A3025 RMK AO1 SLP310
SPECI CYNL 131703Z AUTO ///// 5SM VV005 M20/M23 A3024 RMK AO1 SLP309
METAR CYNL 131700Z AUTO 30009KT 4SM VV004 M20/M23 A3024 RMK AO1 SLP309
SPECI CYNL 131625Z AUTO ///// 8SM VV004 M20/M23 A3024 RMK AO1 PRESRR SLP306
SPECI CYNL 131611Z AUTO 30008KT 9SM SCT004 M20/M23 A3023 RMK AO1 PRESRR SLP303
METAR CYNL 131600Z AUTO ///// 9SM VV004 M20/M23 A3023 RMK AO1 PRESRR SLP303
SPECI CYNL 131559Z AUTO ///// 8SM VV004 M20/M23 A3023 RMK AO1 PRESRR SLP302
SPECI CYNL 131549Z AUTO ///// 8SM VV005 M20/M23 A3023 RMK AO1 SLP300
SPECI CYNL 131545Z AUTO ///// 9SM VV004 M20/M23 A3022 RMK AO1 SLP299
SPECI CYNL 131532Z AUTO ///// 5SM VV005 M19/M22 A3022 RMK AO1 SLP299
SPECI CYNL 131525Z AUTO ///// 3SM BKN003 OVC006 M19/M22 A3021 RMK AO1 SLP295
SPECI CYNL 131523Z AUTO ///// 2 1/2SM BKN003 OVC006 M19/M22 A3021 RMK AO1 SLP295
METAR CYNL 131500Z AUTO ///// 3SM SCT003 BKN006 OVC008 M19/M22 A3019 RMK AO1 SLP288
SPECI CYNL 131411Z AUTO ///// 5SM SCT003 BKN006 OVC010 M17/M20 A3018 RMK AO1 PRESRR SLP282
METAR CYNL 131400Z AUTO ///// 5SM SCT003 BKN006 OVC010 M17/M20 A3019 RMK AO1 PRESRR SLP281
SPECI CYNL 131357Z AUTO ///// 8SM SCT002 BKN008 OVC010 M17/M20 A3018 RMK AO1 PRESRR SLP278
SPECI CYNL 131356Z AUTO ///// 9SM SCT002 OVC010 M17/M20 A3018 RMK AO1 PRESRR SLP278
SPECI CYNL 131353Z AUTO ///// 9SM SCT002 BKN006 OVC010 M17/M20 A3018 RMK AO1 PRESRR SLP277
SPECI CYNL 131345Z AUTO ///// 3SM BKN002 OVC006 M17/M20 A3017 RMK AO1 PRESRR SLP275
SPECI CYNL 131342Z AUTO ///// 2SM OVC002 M17/M19 A3017 RMK AO1 PRESRR SLP275
SPECI CYNL 131339Z AUTO ///// 1 3/4SM OVC002 M17/M19 A3017 RMK AO1 PRESRR SLP274
SPECI CYNL 131337Z AUTO 30008G17KT 2SM OVC002 M16/M19 A3017 RMK AO1 PRESRR SLP273
SPECI CYNL 131333Z AUTO 30009G17KT 1 3/4SM OVC002 M16/M19 A3016 RMK AO1 PRESRR SLP272
SPECI CYNL 131323Z AUTO ///// 2 1/2SM OVC002 M16/M19 A3016 RMK AO1 PRESRR SLP270
SPECI CYNL 131318Z AUTO ///// 3SM OVC002 M16/M19 A3016 RMK AO1 PRESRR SLP270
SPECI CYNL 131314Z AUTO ///// 2SM OVC002 M16/M19 A3016 RMK AO1 PRESRR SLP270
SPECI CYNL 131310Z AUTO 29009KT 2SM BKN003 OVC009 M16/M19 A3016 RMK AO1 PRESRR SLP269
SPECI CYNL 131308Z AUTO 30009KT 1 3/4SM BKN003 OVC008 M16/M19 A3015 RMK AO1 PRESRR SLP268
SPECI CYNL 131305Z AUTO 29009KT 2 1/2SM BKN003 OVC008 M16/M19 A3015 RMK AO1 PRESRR SLP269
METAR CYNL 131300Z AUTO ///// 3SM BKN003 OVC008 M16/M19 A3015 RMK AO1 PRESRR SLP268
SPECI CYNL 131240Z AUTO 29008KT 7SM BKN003 BKN006 OVC007 M16/M19 A3014 RMK AO1 SLP262
SPECI CYNL 131212Z AUTO ///// 3SM BKN002 OVC008 M16/M18 A3014 RMK AO1 SLP260
METAR CYNL 131200Z AUTO 28008KT 2 1/2SM BKN002 OVC008 M16/M18 A3013 RMK AO1 SLP259
SPECI CYNL 131159Z AUTO ///// 2 1/2SM BKN002 OVC008 M16/M18 A3013 RMK AO1 SLP259
SPECI CYNL 131112Z AUTO 29008KT 5SM BKN002 OVC008 M15/M18 A3013 RMK AO1 SLP257
METAR CYNL 131100Z AUTO ///// 9SM BKN003 OVC009 M15/M17 A3013 RMK AO1 SLP258
SPECI CYNL 131006Z AUTO 29012KT 9SM FEW003 OVC009 M14/M17 A3011 RMK AO1 PRESRR SLP252
METAR CYNL 131000Z AUTO 28010G17KT 9SM FEW002 OVC010 M14/M17 A3012 RMK AO1 PRESRR SLP252
SPECI CYNL 130950Z AUTO 28010G17KT 9SM SCT002 OVC010 M14/M17 A3011 RMK AO1 PRESRR SLP252
SPECI CYNL 130949Z AUTO 28009G15KT 9SM SCT002 BKN005 OVC010 M14/M17 A3011 RMK AO1 PRESRR SLP251
SPECI CYNL 130937Z AUTO ///// 3SM OVC002 M14/M16 A3011 RMK AO1 PRESRR SLP249
SPECI CYNL 130929Z AUTO ///// 2 1/2SM OVC002 M14/M16 A3011 RMK AO1 PRESRR SLP248
SPECI CYNL 130923Z AUTO ///// 3SM OVC002 M14/M16 A3010 RMK AO1 PRESRR SLP247
SPECI CYNL 130920Z AUTO 29010G16KT 2SM OVC002 M14/M16 A3010 RMK AO1 PRESRR SLP246
SPECI CYNL 130914Z AUTO ///// 2 1/2SM OVC003 M14/M16 A3010 RMK AO1 PRESRR SLP245
SPECI CYNL 130912Z AUTO ///// 5SM OVC003 M14/M16 A3010 RMK AO1 PRESRR SLP245
METAR CYNL 130900Z AUTO ///// 3SM OVC002 M13/M16 A3009 RMK AO1 PRESRR SLP242
SPECI CYNL 130855Z AUTO ///// 2 1/2SM OVC003 M13/M16 A3009 RMK AO1 PRESRR SLP241
SPECI CYNL 130854Z AUTO ///// 4SM OVC003 M13/M16 A3009 RMK AO1 PRESRR SLP241
SPECI CYNL 130845Z AUTO ///// 3SM OVC002 M13/M16 A3009 RMK AO1 PRESRR SLP242
SPECI CYNL 130839Z AUTO ///// 2 1/2SM OVC002 M13/M16 A3009 RMK AO1 PRESRR SLP242
SPECI CYNL 130831Z AUTO ///// 4SM OVC002 M13/M15 A3008 RMK AO1 PRESRR SLP239
SPECI CYNL 130820Z AUTO ///// 6SM OVC003 M13/M15 A3008 RMK AO1 PRESRR SLP237
SPECI CYNL 130813Z AUTO ///// 3SM OVC002 M13/M15 A3007 RMK AO1 PRESRR SLP236
SPECI CYNL 130812Z AUTO ///// 3SM OVC003 M13/M15 A3007 RMK AO1 PRESRR SLP236
SPECI CYNL 130807Z AUTO ///// 2 1/2SM BKN003 OVC008 M13/M15 A3007 RMK AO1 PRESRR SLP236
METAR CYNL 130800Z AUTO ///// 6SM BKN003 OVC007 M13/M15 A3007 RMK AO1 PRESRR SLP234
SPECI CYNL 130752Z AUTO ///// 3SM BKN003 BKN007 OVC009 M13/M15 A3006 RMK AO1 SLP233
SPECI CYNL 130746Z AUTO ///// 2 1/2SM BKN003 BKN007 OVC008 M13/M15 A3006 RMK AO1 SLP232
SPECI CYNL 130702Z AUTO ///// 5SM BKN003 BKN007 OVC008 M12/M15 A3004 RMK AO1 SLP225
METAR CYNL 130700Z AUTO ///// 7SM SCT003 BKN005 BKN007 M12/M15 A3004 RMK AO1 SLP224
SPECI CYNL 130658Z AUTO ///// 6SM BKN004 BKN007 OVC009 M12/M15 A3004 RMK AO1 SLP225
SPECI CYNL 130606Z AUTO ///// 8SM FEW005 BKN009 OVC011 M12/M14 A3003 RMK AO1 SLP222
METAR CYNL 130600Z AUTO ///// 3SM FEW003 OVC010 M12/M14 A3003 RMK AO1 SLP220
SPECI CYNL 130559Z AUTO ///// 3SM FEW003 OVC010 M12/M14 A3003 RMK AO1 SLP220
SPECI CYNL 130558Z AUTO ///// 2 1/2SM FEW003 OVC010 M12/M14 A3003 RMK AO1 SLP221
SPECI CYNL 130549Z AUTO ///// 6SM FEW007 OVC010 M12/M14 A3002 RMK AO1 SLP220
METAR CYNL 130500Z AUTO 30008KT 3SM OVC010 M11/M13 A3001 RMK AO1 SLP214
SPECI CYNL 130423Z AUTO ///// 9SM FEW003 SCT006 OVC010 M10/M12 A3000 RMK AO1 SLP210
SPECI CYNL 130412Z AUTO ///// 9SM SCT003 OVC006 M10/M12 A3000 RMK AO1 SLP210
METAR CYNL 130400Z AUTO 32009KT 3SM BKN003 OVC006 M10/M12 A2999 RMK AO1 SLP207
SPECI CYNL 130358Z AUTO 31008G17KT 3SM BKN003 OVC005 M10/M11 A2999 RMK AO1 SLP209
SPECI CYNL 130351Z AUTO 31010G18KT 2 1/2SM BKN003 OVC006 M09/M11 A2999 RMK AO1 PRESRR SLP208
SPECI CYNL 130345Z AUTO 32010G18KT 3SM BKN003 OVC006 M09/M11 A2999 RMK AO1 PRESRR SLP207
SPECI CYNL 130338Z AUTO 29009G17KT 2 1/2SM BKN003 OVC006 M09/M11 A2998 RMK AO1 PRESRR SLP206
SPECI CYNL 130334Z AUTO 30011G17KT 3SM BKN003 OVC005 M09/M10 A2998 RMK AO1 PRESRR SLP205
SPECI CYNL 130327Z AUTO 31006KT 2SM BKN003 OVC004 M09/M10 A2998 RMK AO1 PRESRR SLP205
SPECI CYNL 130325Z AUTO 29009KT 1 3/4SM OVC003 M09/M10 A2998 RMK AO1 PRESRR SLP204
SPECI CYNL 130322Z AUTO 31008KT 2SM OVC003 M09/M10 A2998 RMK AO1 PRESRR SLP205
SPECI CYNL 130311Z AUTO 28007G16KT 1 3/4SM OVC003 M09/M10 A2998 RMK AO1 PRESRR SLP202
SPECI CYNL 130310Z AUTO 29007G16KT 2 1/2SM OVC003 M09/M10 A2998 RMK AO1 PRESRR SLP202
SPECI CYNL 130307Z AUTO 30010G16KT 3SM BKN003 OVC006 M09/M10 A2998 RMK AO1 PRESRR SLP203
SPECI CYNL 130305Z AUTO 31009G16KT 2SM BKN003 OVC006 M09/M10 A2998 RMK AO1 PRESRR SLP202
METAR CYNL 130300Z AUTO 30008G21KT 1 1/2SM BKN003 OVC005 M09/M10 A2997 RMK AO1 PRESRR SLP201
SPECI CYNL 130259Z AUTO 30009G21KT 1 3/4SM BKN003 OVC005 M09/M10 A2997 RMK AO1 PRESRR SLP201
SPECI CYNL 130257Z AUTO 30013G21KT 2 1/2SM BKN003 OVC005 M09/M10 A2997 RMK AO1 PRESRR SLP200
SPECI CYNL 130251Z AUTO 31012G21KT 3SM BKN003 OVC006 M08/M10 A2997 RMK AO1 PRESRR SLP200
SPECI CYNL 130250Z AUTO 31010G21KT 2SM BKN003 OVC006 M08/M10 A2997 RMK AO1 PRESRR SLP200
SPECI CYNL 130249Z AUTO 30008G16KT 1 1/2SM BKN003 OVC006 M08/M10 A2997 RMK AO1 PRESRR SLP199
SPECI CYNL 130246Z AUTO 29008G19KT 1 1/4SM SCT003 OVC006 M08/M10 A2997 RMK AO1 PRESRR SLP199
SPECI CYNL 130245Z AUTO 29009G19KT 1 3/4SM SCT003 OVC006 M08/M10 A2997 RMK AO1 PRESRR SLP199
SPECI CYNL 130244Z AUTO 29010G20KT 2SM SCT004 OVC006 M08/M10 A2996 RMK AO1 PRESRR SLP198
SPECI CYNL 130236Z AUTO 29011G20KT 3SM OVC005 M08/M10 A2996 RMK AO1 PRESRR SLP196
SPECI CYNL 130233Z AUTO 29012G19KT 2 1/2SM OVC005 M08/M10 A2996 RMK AO1 PRESRR SLP195
SPECI CYNL 130226Z AUTO 30010G17KT 4SM OVC005 M08/M09 A2996 RMK AO1 PRESRR SLP195
SPECI CYNL 130224Z AUTO 29009G17KT 2SM OVC005 M08/M09 A2996 RMK AO1 PRESRR SLP195
SPECI CYNL 130215Z AUTO 29007G16KT 1 3/4SM OVC005 M07/M09 A2995 RMK AO1 PRESRR SLP192
SPECI CYNL 130209Z AUTO 30011G16KT 2 1/2SM OVC005 M07/M09 A2995 RMK AO1 PRESRR SLP192
SPECI CYNL 130202Z AUTO 30006G16KT 3SM OVC005 M07/M09 A2995 RMK AO1 PRESRR SLP190
METAR CYNL 130200Z AUTO 30008G16KT 2 1/2SM OVC005 M07/M09 A2994 RMK AO1 PRESRR SLP189
SPECI CYNL 130107Z AUTO 28008G15KT 4SM OVC005 M07/M08 A2992 RMK AO1 SLP180
METAR CYNL 130100Z AUTO 28008G16KT 4SM OVC004 M07/M08 A2992 RMK AO1 SLP179
METAR CYNL 130000Z AUTO 28006KT 4SM OVC003 M07/M08 A2990 RMK AO1 SLP175
SPECI CYNL 122343Z AUTO 27006KT 3SM OVC003 M07/M08 A2989 RMK AO1 PRESRR SLP173
SPECI CYNL 122342Z AUTO 27008KT 2 1/2SM OVC003 M07/M08 A2989 RMK AO1 PRESRR SLP173
SPECI CYNL 122340Z AUTO 26011KT 1 3/4SM OVC003 M07/M08 A2989 RMK AO1 PRESRR SLP173
SPECI CYNL 122339Z AUTO 27010KT 2SM OVC003 M07/M08 A2989 RMK AO1 PRESRR SLP173
SPECI CYNL 122330Z AUTO 27006KT 4SM OVC003 M07/M08 A2989 RMK AO1 PRESRR SLP172
SPECI CYNL 122325Z AUTO 26008KT 2 1/2SM OVC003 M07/M08 A2989 RMK AO1 PRESRR SLP172
SPECI CYNL 122324Z AUTO 27006KT 3SM OVC003 M07/M08 A2989 RMK AO1 PRESRR SLP171
SPECI CYNL 122314Z AUTO 27009KT 2 1/2SM OVC003 M07/M08 A2989 RMK AO1 PRESRR SLP170
SPECI CYNL 122313Z AUTO 27008KT 3SM OVC003 M07/M08 A2989 RMK AO1 PRESRR SLP170
SPECI CYNL 122306Z AUTO 28009KT 2 1/2SM OVC003 M07/M08 A2988 RMK AO1 PRESRR SLP169
METAR CYNL 122300Z AUTO 27005KT 4SM OVC003 M07/M08 A2988 RMK AO1 PRESRR SLP170
METAR CYNL 122200Z AUTO 27007KT 7SM OVC004 M07/M08 A2986 RMK AO1 SLP163
SPECI CYNL 122111Z AUTO 26006KT 3SM OVC004 M07/M09 A2985 RMK AO1 PRESRR SLP159
SPECI CYNL 122110Z AUTO 26008KT 2 1/2SM OVC004 M07/M09 A2985 RMK AO1 PRESRR SLP159
METAR CYNL 122100Z AUTO 26006KT 3SM OVC004 M07/M09 A2984 RMK AO1 PRESRR SLP157
SPECI CYNL 122057Z AUTO 25007KT 3SM OVC004 M07/M09 A2984 RMK AO1 SLP157
METAR CYNL 122000Z AUTO 24007KT 9SM OVC007 M08/M09 A2982 RMK AO1 SLP149
SPECI CYNL 121922Z AUTO 25006KT 9SM OVC009 M08/M10 A2983 RMK AO1 SLP152
METAR CYNL 121900Z AUTO 24006KT 9SM OVC010 M09/M11 A2982 RMK AO1 SLP151
SPECI CYNL 121837Z AUTO 24005KT 9SM BKN011 M09/M12 A2982 RMK AO1 SLP152
METAR CYNL 121800Z AUTO 22007KT 9SM CLR M09/M12 A2982 RMK AO1 SLP151
METAR CYNL 121700Z AUTO 21006KT 9SM CLR M10/M13 A2982 RMK AO1 SLP153
METAR CYNL 121600Z AUTO 21005KT 9SM CLR M11/M14 A2982 RMK AO1 SLP157
METAR CYNL 121500Z AUTO 22007KT 9SM CLR M11/M14 A2981 RMK AO1 SLP154
METAR CYNL 121400Z AUTO 20007KT 9SM FEW140 M12/M14 A2979 RMK AO1 SLP148
METAR CYNL 121300Z AUTO ///// 9SM CLR M12/M15 A2981 RMK AO1 PRESFR SLP155
SPECI CYNL 121216Z AUTO ///// 9SM SCT005 M12/M15 A2982 RMK AO1 SLP161
METAR CYNL 121200Z AUTO ///// 9SM BKN006 M12/M15 A2983 RMK AO1 SLP165
METAR CYNL 121100Z AUTO ///// 9SM VV006 M13/M15 A2985 RMK AO1 PRESFR SLP172
SPECI CYNL 121022Z AUTO ///// 9SM VV005 M13/M16 A2987 RMK AO1 PRESFR SLP179
SPECI CYNL 121020Z AUTO ///// 9SM VV004 M13/M16 A2988 RMK AO1 PRESFR SLP180
SPECI CYNL 121019Z AUTO ///// 9SM VV005 M13/M16 A2988 RMK AO1 PRESFR SLP180
SPECI CYNL 121014Z AUTO ///// 9SM FEW005 BKN010 BKN088 M13/M16 A2988 RMK AO1 PRESFR SLP182
SPECI CYNL 121002Z AUTO ///// 9SM BKN011 OVC086 M13/M16 A2988 RMK AO1 PRESFR SLP183
METAR CYNL 121000Z AUTO ///// 9SM SCT011 OVC086 M13/M16 A2989 RMK AO1 PRESFR SLP184
METAR CYNL 120900Z AUTO ///// 9SM FEW005 M13/M15 A2991 RMK AO1 PRESFR SLP192
METAR CYNL 120800Z AUTO ///// 9SM FEW006 M13/M16 A2995 RMK AO1 SLP205
SPECI CYNL 120724Z AUTO ///// 9SM FEW006 M13/M16 A2996 RMK AO1 PRESFR SLP211
METAR CYNL 120700Z AUTO ///// 9SM CLR M13/M16 A2996 RMK AO1 PRESFR SLP212
METAR CYNL 120600Z AUTO ///// 8SM FEW110 M14/M16 A2998 RMK AO1 PRESFR SLP222
METAR CYNL 120500Z AUTO ///// 9SM FEW110 M14/M17 A3002 RMK AO1 PRESFR SLP236
METAR CYNL 120400Z AUTO ///// 9SM FEW013 M15/M17 A3004 RMK AO1 PRESFR SLP246
METAR CYNL 120300Z AUTO 17013G19KT 9SM FEW110 M15/M18 A3007 RMK AO1 PRESFR SLP256
METAR CYNL 120200Z AUTO 17011G17KT 9SM FEW082 SCT120 M16/M18 A3009 RMK AO1 SLP265
METAR CYNL 120100Z AUTO 17012G21KT 9SM SCT005 M16/M19 A3011 RMK AO1 PRESFR SLP273
SPECI CYNL 120049Z AUTO 17013G22KT 9SM SCT005 M16/M19 A3012 RMK AO1 PRESFR SLP276
SPECI CYNL 120045Z AUTO 17015G22KT 9SM VV006 M16/M19 A3012 RMK AO1 PRESFR SLP276
SPECI CYNL 120036Z AUTO 16015KT 8SM FEW005 M16/M19 A3012 RMK AO1 PRESFR SLP276
METAR CYNL 120000Z AUTO 17014G20KT 9SM FEW011 SCT024 OVC052 M17/M19 A3014 RMK AO1 PRESFR SLP283
SPECI CYNL 112333Z AUTO 16011G18KT 9SM FEW011 SCT023 OVC054 M17/M19 A3015 RMK AO1 PRESFR SLP288
SPECI CYNL 112329Z AUTO 17012G18KT 9SM FEW011 SCT024 BKN027 M17/M19 A3015 RMK AO1 PRESFR SLP289
SPECI CYNL 112311Z AUTO 16012G20KT 9SM SCT028 BKN045 OVC056 M17/M19 A3016 RMK AO1 PRESFR SLP290
METAR CYNL 112300Z AUTO 16014KT 9SM FEW011 OVC027 M17/M19 A3016 RMK AO1 PRESFR SLP292
SPECI CYNL 112217Z AUTO ///// 9SM FEW005 BKN025 BKN034 M16/M19 A3018 RMK AO1 PRESFR SLP298
METAR CYNL 112200Z AUTO 16016G21KT 6SM FEW005 BKN035 M16/M19 A3018 RMK AO1 PRESFR SLP300
SPECI CYNL 112150Z AUTO ///// 6SM FEW006 BKN036 M16/M19 A3019 RMK AO1 SLP301
METAR CYNL 112100Z AUTO ///// 9SM OVC035 M17/M20 A3021 RMK AO1 SLP309
SPECI CYNL 112003Z AUTO ///// 9SM SCT009 OVC043 M19/M22 A3023 RMK AO1 PRESFR SLP318
METAR CYNL 112000Z AUTO ///// 9SM BKN009 OVC044 M19/M22 A3023 RMK AO1 PRESFR SLP318
METAR CYNL 111900Z AUTO ///// 9SM OVC007 M20/M23 A3025 RMK AO1 PRESFR SLP328
METAR CYNL 111800Z AUTO ///// 9SM OVC006 M21/M24 A3028 RMK AO1 PRESFR SLP339
METAR CYNL 111700Z AUTO ///// 9SM OVC007 M22/M25 A3030 RMK AO1 SLP348
METAR CYNL 111600Z AUTO ///// 9SM OVC007 M22/M26 A3031 RMK AO1 SLP351
SPECI CYNL 111521Z AUTO ///// 9SM BKN009 OVC062 M23/M26 A3031 RMK AO1 SLP353
SPECI CYNL 111518Z AUTO ///// 9SM SCT009 BKN021 OVC062 M23/M26 A3032 RMK AO1 SLP354
SPECI CYNL 111504Z AUTO ///// 9SM SCT009 OVC062 M23/M26 A3031 RMK AO1 SLP352
SPECI CYNL 111501Z AUTO ///// 9SM SCT010 OVC062 M23/M26 A3031 RMK AO1 SLP353
METAR CYNL 111500Z AUTO ///// 9SM SCT010 BKN023 OVC062 M23/M26 A3031 RMK AO1 SLP353
SPECI CYNL 111450Z AUTO ///// 9SM VV015 M23/M26 A3031 RMK AO1 SLP351
SPECI CYNL 111447Z AUTO ///// 9SM VV010 M23/M26 A3031 RMK AO1 SLP351
SPECI CYNL 111445Z AUTO ///// 9SM VV009 M23/M26 A3031 RMK AO1 SLP351
SPECI CYNL 111436Z AUTO ///// 4SM VV014 M23/M26 A3031 RMK AO1 SLP350
SPECI CYNL 111432Z AUTO ///// 8SM VV015 M23/M26 A3031 RMK AO1 SLP350
SPECI CYNL 111414Z AUTO ///// 5SM VV014 M23/M27 A3030 RMK AO1 SLP349
SPECI CYNL 111408Z AUTO ///// 4SM VV023 M23/M27 A3030 RMK AO1 SLP349
SPECI CYNL 111406Z AUTO ///// 4SM VV027 M23/M27 A3030 RMK AO1 SLP349
SPECI CYNL 111403Z AUTO ///// 5SM VV030 M23/M27 A3030 RMK AO1 SLP349
SPECI CYNL 111401Z AUTO ///// 6SM VV025 M23/M27 A3030 RMK AO1 SLP350
METAR CYNL 111400Z AUTO ///// 5SM VV022 M23/M27 A3031 RMK AO1 SLP350
SPECI CYNL 111358Z AUTO ///// 4SM VV015 M23/M27 A3031 RMK AO1 SLP349
SPECI CYNL 111336Z AUTO ///// 3SM VV013 M23/M27 A3032 RMK AO1 SLP353
SPECI CYNL 111331Z AUTO ///// 2SM VV014 M23/M27 A3032 RMK AO1 SLP352
SPECI CYNL 111328Z AUTO ///// 2 1/2SM VV016 M23/M27 A3032 RMK AO1 SLP352
SPECI CYNL 111325Z AUTO ///// 3SM VV020 M23/M27 A3031 RMK AO1 SLP352
SPECI CYNL 111319Z AUTO ///// 2 1/2SM VV015 M23/M27 A3032 RMK AO1 SLP352
SPECI CYNL 111314Z AUTO ///// 3SM VV013 M23/M27 A3031 RMK AO1 SLP352
SPECI CYNL 111308Z AUTO ///// 2 1/2SM VV014 M23/M27 A3032 RMK AO1 SLP353
SPECI CYNL 111301Z AUTO ///// 3SM VV012 M23/M27 A3032 RMK AO1 SLP353
METAR CYNL 111300Z AUTO ///// 2 1/2SM VV012 M23/M27 A3032 RMK AO1 SLP353
SPECI CYNL 111255Z AUTO ///// 2SM VV014 M23/M27 A3032 RMK AO1 SLP354
SPECI CYNL 111254Z AUTO ///// 1 3/4SM VV014 M23/M27 A3032 RMK AO1 SLP355
SPECI CYNL 111249Z AUTO ///// 1 1/2SM VV016 M23/M27 A3032 RMK AO1 SLP355
SPECI CYNL 111248Z AUTO ///// 2SM VV016 M23/M27 A3032 RMK AO1 SLP355
SPECI CYNL 111247Z AUTO ///// 2 1/2SM FEW016 M23/M27 A3032 RMK AO1 SLP355
METAR CYNL 111200Z AUTO ///// 9SM OVC074 M24/M27 A3032 RMK AO1 SLP353
METAR CYNL 111100Z AUTO ///// 9SM FEW009 OVC078 M24/M27 A3033 RMK AO1 PRESFR SLP359
SPECI CYNL 111003Z AUTO ///// 9SM SCT009 OVC078 M24/M27 A3036 RMK AO1 SLP369
METAR CYNL 111000Z AUTO ///// 9SM BKN009 OVC078 M24/M27 A3036 RMK AO1 SLP369
SPECI CYNL 110957Z AUTO ///// 9SM BKN009 OVC078 M24/M27 A3036 RMK AO1 PRESRR SLP369
SPECI CYNL 110956Z AUTO ///// 9SM SCT009 OVC078 M24/M27 A3035 RMK AO1 PRESRR SLP369
METAR CYNL 110900Z AUTO ///// 9SM OVC009 M24/M28 A3035 RMK AO1 PRESRR SLP366
SPECI CYNL 110817Z AUTO ///// 9SM BKN008 OVC120 M24/M28 A3033 RMK AO1 SLP361
METAR CYNL 110800Z AUTO ///// 9SM SCT008 OVC120 M24/M28 A3032 RMK AO1 SLP358
SPECI CYNL 110732Z AUTO 09005KT 9SM FEW008 OVC120 M25/M28 A3033 RMK AO1 SLP361
METAR CYNL 110700Z AUTO 09005KT 9SM OVC130 M25/M29 A3032 RMK AO1 SLP359
METAR CYNL 110600Z AUTO 09004KT 9SM BKN130 M25/M28 A3033 RMK AO1 SLP364
METAR CYNL 110500Z AUTO 09005KT 9SM OVC140 M25/M28 A3032 RMK AO1 SLP362
SPECI CYNL 110422Z AUTO ///// 9SM SCT012 OVC140 M24/M28 A3032 RMK AO1 SLP361
METAR CYNL 110400Z AUTO ///// 9SM BKN011 OVC013 M24/M28 A3032 RMK AO1 SLP361
SPECI CYNL 110319Z AUTO ///// 9SM OVC010 M24/M27 A3031 RMK AO1 SLP359
METAR CYNL 110300Z AUTO ///// 9SM OVC009 M23/M27 A3031 RMK AO1 SLP359
METAR CYNL 110200Z AUTO ///// 9SM OVC007 M22/M26 A3030 RMK AO1 SLP355
METAR CYNL 110100Z AUTO ///// 9SM BKN008 OVC010 M22/M26 A3030 RMK AO1 SLP353
METAR CYNL 110000Z AUTO 08005KT 9SM SCT008 BKN009 M24/M27 A3030 RMK AO1 SLP356
SPECI CYNL 102318Z AUTO 08004KT 9SM FEW009 SCT011 M24/M28 A3029 RMK AO1 SLP354
SPECI CYNL 102317Z AUTO 08004KT 9SM SCT010 M24/M28 A3029 RMK AO1 SLP354
SPECI CYNL 102309Z AUTO ///// 9SM SCT009 BKN011 M24/M28 A3029 RMK AO1 SLP354
METAR CYNL 102300Z AUTO 07004KT 9SM BKN009 M24/M28 A3029 RMK AO1 SLP354
SPECI CYNL 102254Z AUTO 08004KT 9SM BKN009 M24/M28 A3029 RMK AO1 SLP353
METAR CYNL 102200Z AUTO ///// 9SM FEW007 SCT009 M24/M28 A3028 RMK AO1 SLP350
SPECI CYNL 102158Z AUTO ///// 9SM FEW007 SCT009 M24/M28 A3028 RMK AO1 SLP350
SPECI CYNL 102156Z AUTO ///// 9SM FEW004 SCT009 BKN012 M24/M28 A3028 RMK AO1 SLP349
SPECI CYNL 102155Z AUTO ///// 9SM FEW004 SCT007 BKN009 M24/M28 A3027 RMK AO1 SLP349
SPECI CYNL 102153Z AUTO ///// 9SM FEW004 SCT007 BKN010 M24/M28 A3027 RMK AO1 SLP349
SPECI CYNL 102152Z AUTO ///// 9SM FEW004 SCT007 BKN009 M24/M28 A3027 RMK AO1 SLP349
SPECI CYNL 102151Z AUTO ///// 9SM FEW004 SCT007 BKN010 M24/M28 A3027 RMK AO1 SLP349
SPECI CYNL 102148Z AUTO ///// 9SM VV009 M24/M28 A3028 RMK AO1 SLP349
SPECI CYNL 102144Z AUTO ///// 9SM VV010 M24/M28 A3028 RMK AO1 SLP349
SPECI CYNL 102132Z AUTO ///// 9SM VV008 M24/M27 A3027 RMK AO1 SLP348
SPECI CYNL 102125Z AUTO ///// 9SM FEW004 SCT011 BKN017 M24/M27 A3027 RMK AO1 SLP348
SPECI CYNL 102124Z AUTO ///// 9SM VV010 M24/M27 A3027 RMK AO1 SLP348
SPECI CYNL 102120Z AUTO ///// 9SM VV009 M23/M27 A3027 RMK AO1 SLP347
SPECI CYNL 102105Z AUTO ///// 9SM FEW008 OVC016 M24/M27 A3027 RMK AO1 SLP346
METAR CYNL 102100Z AUTO ///// 9SM FEW011 OVC016 M24/M28 A3027 RMK AO1 SLP346
SPECI CYNL 102044Z AUTO ///// 9SM SCT011 OVC015 M24/M28 A3026 RMK AO1 SLP346
METAR CYNL 102000Z AUTO 08006KT 9SM OVC010 M25/M28 A3026 RMK AO1 SLP347
METAR CYNL 101900Z AUTO 09004KT 9SM OVC010 M26/M30 A3027 RMK AO1 SLP351
SPECI CYNL 101826Z AUTO 08004KT 9SM BKN011 M27/M31 A3026 RMK AO1 SLP353
METAR CYNL 101800Z AUTO 08005KT 9SM CLR M27/M31 A3027 RMK AO1 SLP355
METAR CYNL 101700Z AUTO 07005KT 9SM CLR M28/M32 A3028 RMK AO1 SLP360
METAR CYNL 101600Z AUTO 07005KT 9SM CLR M28/M32 A3028 RMK AO1 SLP360
SPECI CYNL 101504Z AUTO 06004KT 9SM SCT003 M28/M32 A3028 RMK AO1 SLP358
METAR CYNL 101500Z AUTO 06005KT 9SM BKN003 M28/M32 A3027 RMK AO1 SLP357
SPECI CYNL 101408Z AUTO 08004KT 9SM VV003 M29/M33 A3027 RMK AO1 SLP355
METAR CYNL 101400Z AUTO 07004KT 9SM OVC002 M29/M33 A3027 RMK AO1 SLP356
SPECI CYNL 101359Z AUTO 07004KT 9SM VV003 M29/M33 A3027 RMK AO1 SLP354
SPECI CYNL 101324Z AUTO 06004KT 9SM VV002 M29/M33 A3027 RMK AO1 SLP352
SPECI CYNL 101322Z AUTO 06004KT 9SM VV003 M29/M33 A3027 RMK AO1 SLP351
SPECI CYNL 101311Z AUTO 06004KT 9SM VV002 M29/M33 A3027 RMK AO1 SLP351
SPECI CYNL 101305Z AUTO 06003KT 9SM FEW002 M29/M33 A3027 RMK AO1 SLP352
METAR CYNL 101300Z AUTO 06004KT 9SM CLR M29/M33 A3027 RMK AO1 SLP352
METAR CYNL 101200Z AUTO 07004KT 9SM CLR M29/M33 A3027 RMK AO1 SLP350
METAR CYNL 101100Z AUTO ///// 9SM CLR M29/M33 A3028 RMK AO1 SLP349
METAR CYNL 101000Z AUTO 07004KT 9SM CLR M30/M33 A3028 RMK AO1 SLP351
METAR CYNL 100900Z AUTO ///// 9SM CLR M30/M34 A3028 RMK AO1 SLP348
METAR CYNL 100800Z AUTO ///// 9SM CLR M30/M34 A3030 RMK AO1 SLP353
METAR CYNL 100700Z AUTO 00000KT 9SM CLR M33/M37 A3030 RMK AO1 SLP358
METAR CYNL 100600Z AUTO 06003KT 9SM CLR M32/M37 A3030 RMK AO1 SLP361
METAR CYNL 100500Z AUTO 02004KT 9SM CLR M31/M35 A3030 RMK AO1 SLP360
METAR CYNL 100400Z AUTO 00000KT 9SM CLR M31/M35 A3030 RMK AO1 SLP363
METAR CYNL 100300Z AUTO 00000KT 9SM CLR M30/M34 A3030 RMK AO1 SLP363
METAR CYNL 100200Z AUTO 17002KT 9SM CLR M28/M32 A3031 RMK AO1 SLP365
METAR CYNL 100100Z AUTO ///// 9SM CLR M26/M30 A3032 RMK AO1 SLP364
METAR CYNL 100000Z AUTO ///// 9SM CLR M24/M28 A3033 RMK AO1 SLP365
METAR CYNL 092300Z AUTO ///// 9SM CLR M23/M27 A3034 RMK AO1 SLP373
METAR CYNL 092200Z AUTO ///// 9SM CLR M21/M25 A3033 RMK AO1 SLP368
METAR CYNL 092100Z AUTO 21006KT 9SM CLR M20/M24 A3033 RMK AO1 SLP370
METAR CYNL 092000Z AUTO 18005KT 9SM CLR M21/M25 A3034 RMK AO1 SLP372
METAR CYNL 091900Z AUTO ///// 9SM CLR M23/M27 A3034 RMK AO1 SLP377
METAR CYNL 091800Z AUTO ///// 9SM FEW047 M24/M28 A3036 RMK AO1 SLP384
METAR CYNL 091700Z AUTO 17006KT 9SM FEW050 M25/M29 A3038 RMK AO1 SLP390
METAR CYNL 091600Z AUTO 16005KT 9SM OVC047 M26/M30 A3038 RMK AO1 SLP390
METAR CYNL 091500Z AUTO ///// 9SM OVC050 M27/M31 A3038 RMK AO1 SLP388
METAR CYNL 091400Z AUTO ///// 9SM BKN070 M27/M31 A3038 RMK AO1 SLP387
METAR CYNL 091300Z AUTO 13002KT 9SM BKN062 OVC078 M28/M32 A3039 RMK AO1 SLP387
METAR CYNL 091200Z AUTO 00000KT 9SM BKN084 M32/M36 A3040 RMK AO1 SLP395
METAR CYNL 091100Z AUTO 00000KT 9SM CLR M33/M37 A3040 RMK AO1 SLP397
METAR CYNL 091000Z AUTO 23004KT 9SM CLR M34/M39 A3041 RMK AO1 SLP401
METAR CYNL 090900Z AUTO 23004KT 9SM CLR M34/M38 A3041 RMK AO1 SLP400
METAR CYNL 090800Z AUTO 20003KT 9SM CLR M34/M38 A3042 RMK AO1 SLP402
METAR CYNL 090700Z AUTO ///// 9SM CLR M33/M38 A3041 RMK AO1 PRESRR SLP396
METAR CYNL 090600Z AUTO 27003KT 9SM CLR M32/M36 A3039 RMK AO1 SLP387
METAR CYNL 090500Z AUTO 00000KT 9SM CLR M31/M35 A3038 RMK AO1 SLP381
METAR CYNL 090400Z AUTO 24002KT 9SM CLR M29/M33 A3037 RMK AO1 SLP377
METAR CYNL 090300Z AUTO 00000KT 9SM CLR M27/M31 A3037 RMK AO1 SLP374
METAR CYNL 090200Z AUTO 00000KT 9SM SCT110 M24/M28 A3037 RMK AO1 SLP368
SPECI CYNL 090110Z AUTO ///// 5SM FEW006 SCT012 M24/M27 A3036 RMK AO1 SLP365
SPECI CYNL 090107Z AUTO ///// 5SM VV009 M24/M27 A3036 RMK AO1 SLP365
SPECI CYNL 090104Z AUTO ///// 8SM FEW008 M24/M27 A3036 RMK AO1 SLP365
METAR CYNL 090100Z AUTO ///// 9SM CLR M24/M27 A3036 RMK AO1 SLP365
SPECI CYNL 090020Z AUTO ///// 9SM FEW007 M23/M27 A3036 RMK AO1 SLP363
METAR CYNL 090000Z AUTO ///// 7SM CLR M23/M27 A3035 RMK AO1 SLP362
SPECI CYNL 082302Z AUTO 29004KT 9SM FEW006 SCT009 M22/M26 A3034 RMK AO1 SLP354
METAR CYNL 082300Z AUTO 29004KT 9SM FEW006 SCT009 BKN015 M22/M26 A3033 RMK AO1 SLP353
SPECI CYNL 082259Z AUTO 29003KT 9SM FEW006 SCT009 BKN015 M22/M26 A3033 RMK AO1 SLP353
SPECI CYNL 082256Z AUTO 29004KT 6SM FEW006 SCT009 BKN012 M22/M26 A3033 RMK AO1 PRESRR SLP353
SPECI CYNL 082250Z AUTO ///// 3SM VV009 M22/M26 A3034 RMK AO1 PRESRR SLP354
SPECI CYNL 082239Z AUTO 29004KT 6SM VV012 M22/M26 A3033 RMK AO1 PRESRR SLP352
SPECI CYNL 082235Z AUTO ///// 7SM FEW008 M22/M26 A3033 RMK AO1 PRESRR SLP352
METAR CYNL 082200Z AUTO ///// 9SM CLR M22/M25 A3032 RMK AO1 PRESRR SLP348
METAR CYNL 082100Z AUTO ///// 9SM CLR M22/M25 A3029 RMK AO1 PRESRR SLP335
METAR CYNL 082000Z AUTO ///// 9SM CLR M21/M24 A3026 RMK AO1 SLP325
METAR CYNL 081900Z AUTO ///// 9SM CLR M21/M24 A3024 RMK AO1 PRESRR SLP318
METAR CYNL 081800Z AUTO ///// 9SM FEW008 M20/M24 A3021 RMK AO1 SLP308
SPECI CYNL 081744Z AUTO ///// 9SM SCT009 M20/M24 A3021 RMK AO1 PRESRR SLP306
SPECI CYNL 081737Z AUTO ///// 5SM SCT009 BKN012 M20/M24 A3021 RMK AO1 PRESRR SLP305
SPECI CYNL 081732Z AUTO ///// 3SM VV009 M20/M24 A3020 RMK AO1 PRESRR SLP304
SPECI CYNL 081728Z AUTO ///// 2SM VV009 M21/M24 A3021 RMK AO1 PRESRR SLP305
SPECI CYNL 081727Z AUTO ///// 2SM VV010 M21/M24 A3021 RMK AO1 PRESRR SLP304
SPECI CYNL 081714Z AUTO ///// 1 3/4SM VV014 M21/M24 A3020 RMK AO1 PRESRR SLP304
SPECI CYNL 081713Z AUTO ///// 1 3/4SM VV015 M21/M24 A3020 RMK AO1 PRESRR SLP304
METAR CYNL 081700Z AUTO ///// 2 1/2SM VV017 M21/M24 A3020 RMK AO1 PRESRR SLP303
SPECI CYNL 081658Z AUTO ///// 2 1/2SM VV016 M21/M25 A3020 RMK AO1 PRESRR SLP303
SPECI CYNL 081629Z AUTO ///// 2 1/2SM VV014 M21/M24 A3019 RMK AO1 PRESRR SLP301
SPECI CYNL 081605Z AUTO ///// 2 1/2SM VV022 M21/M24 A3018 RMK AO1 PRESRR SLP295
SPECI CYNL 081602Z AUTO ///// 3SM VV024 M21/M24 A3018 RMK AO1 PRESRR SLP295
SPECI CYNL 081601Z AUTO ///// 3SM VV025 M21/M24 A3018 RMK AO1 PRESRR SLP295
METAR CYNL 081600Z AUTO ///// 4SM VV024 M21/M24 A3018 RMK AO1 PRESRR SLP294
SPECI CYNL 081556Z AUTO ///// 5SM VV015 M21/M24 A3017 RMK AO1 PRESRR SLP294
SPECI CYNL 081555Z AUTO ///// 5SM VV012 M21/M24 A3017 RMK AO1 PRESRR SLP293
SPECI CYNL 081553Z AUTO ///// 5SM VV006 M21/M24 A3017 RMK AO1 PRESRR SLP294
SPECI CYNL 081522Z AUTO ///// 5SM FEW006 M21/M24 A3015 RMK AO1 PRESRR SLP285
METAR CYNL 081500Z AUTO ///// 9SM CLR M20/M24 A3013 RMK AO1 PRESRR SLP279
METAR CYNL 081400Z AUTO ///// 9SM FEW014 SCT020 M20/M24 A3010 RMK AO1 PRESRR SLP267
SPECI CYNL 081357Z AUTO ///// 9SM FEW014 SCT019 M20/M24 A3010 RMK AO1 PRESRR SLP266
SPECI CYNL 081352Z AUTO ///// 9SM FEW007 SCT018 BKN026 M20/M24 A3009 RMK AO1 PRESRR SLP265
SPECI CYNL 081351Z AUTO ///// 9SM FEW007 SCT018 BKN022 M20/M24 A3009 RMK AO1 PRESRR SLP265
SPECI CYNL 081349Z AUTO ///// 9SM FEW014 SCT018 BKN024 M20/M24 A3009 RMK AO1 PRESRR SLP264
SPECI CYNL 081348Z AUTO ///// 9SM VV014 M20/M24 A3009 RMK AO1 PRESRR SLP264
SPECI CYNL 081333Z AUTO ///// 7SM VV024 M20/M24 A3008 RMK AO1 PRESRR SLP260
SPECI CYNL 081325Z AUTO ///// 4SM VV025 M20/M24 A3008 RMK AO1 PRESRR SLP259
SPECI CYNL 081322Z AUTO ///// 4SM VV024 M20/M24 A3008 RMK AO1 PRESRR SLP258
SPECI CYNL 081311Z AUTO ///// 3SM VV027 M20/M24 A3007 RMK AO1 PRESRR SLP255
SPECI CYNL 081306Z AUTO ///// 2 1/2SM VV027 M20/M24 A3006 RMK AO1 PRESRR SLP254
SPECI CYNL 081305Z AUTO ///// 3SM VV027 M20/M24 A3006 RMK AO1 PRESRR SLP254
SPECI CYNL 081303Z AUTO ///// 2 1/2SM VV026 M20/M24 A3006 RMK AO1 PRESRR SLP253
SPECI CYNL 081301Z AUTO ///// 3SM VV026 M20/M24 A3006 RMK AO1 PRESRR SLP252
METAR CYNL 081300Z AUTO ///// 2 1/2SM VV025 M20/M24 A3006 RMK AO1 PRESRR SLP252
SPECI CYNL 081259Z AUTO ///// 2 1/2SM VV025 M20/M24 A3006 RMK AO1 PRESRR SLP252
SPECI CYNL 081247Z AUTO ///// 2 1/2SM VV024 M20/M23 A3005 RMK AO1 PRESRR SLP248
SPECI CYNL 081245Z AUTO ///// 2 1/2SM VV025 M20/M24 A3005 RMK AO1 PRESRR SLP248
SPECI CYNL 081244Z AUTO ///// 3SM VV026 M20/M24 A3005 RMK AO1 PRESRR SLP248
SPECI CYNL 081243Z AUTO ///// 2 1/2SM VV026 M20/M24 A3005 RMK AO1 PRESRR SLP247
SPECI CYNL 081242Z AUTO ///// 3SM VV027 M20/M23 A3004 RMK AO1 PRESRR SLP247
SPECI CYNL 081239Z AUTO ///// 2 1/2SM VV026 M20/M24 A3004 RMK AO1 PRESRR SLP246
SPECI CYNL 081238Z AUTO ///// 3SM VV026 M20/M24 A3004 RMK AO1 PRESRR SLP246
SPECI CYNL 081235Z AUTO ///// 2 1/2SM VV025 M20/M24 A3004 RMK AO1 PRESRR SLP245
SPECI CYNL 081219Z AUTO ///// 2SM VV019 M20/M23 A3003 RMK AO1 PRESRR SLP242
SPECI CYNL 081214Z AUTO ///// 1 1/2SM VV016 M20/M23 A3003 RMK AO1 PRESRR SLP241
SPECI CYNL 081205Z AUTO ///// 1 1/4SM VV018 M19/M23 A3002 RMK AO1 PRESRR SLP239
SPECI CYNL 081201Z AUTO ///// 1 3/4SM VV020 M19/M23 A3002 RMK AO1 PRESRR SLP238
METAR CYNL 081200Z AUTO ///// 2SM VV020 M19/M23 A3002 RMK AO1 PRESRR SLP237
SPECI CYNL 081148Z AUTO ///// 2 1/2SM VV024 M19/M23 A3000 RMK AO1 PRESRR SLP233
SPECI CYNL 081142Z AUTO ///// 2 1/2SM VV025 M19/M23 A3000 RMK AO1 PRESRR SLP231
SPECI CYNL 081138Z AUTO ///// 3SM VV025 M19/M23 A3000 RMK AO1 PRESRR SLP231
SPECI CYNL 081135Z AUTO ///// 2 1/2SM VV026 M19/M23 A3000 RMK AO1 PRESRR SLP230
SPECI CYNL 081134Z AUTO ///// 3SM VV026 M19/M23 A3000 RMK AO1 PRESRR SLP230
SPECI CYNL 081133Z AUTO ///// 2 1/2SM VV026 M19/M23 A3000 RMK AO1 PRESRR SLP230
SPECI CYNL 081131Z AUTO ///// 3SM VV025 M19/M23 A2999 RMK AO1 PRESRR SLP229
SPECI CYNL 081126Z AUTO ///// 2 1/2SM VV025 M19/M23 A2999 RMK AO1 PRESRR SLP227
SPECI CYNL 081108Z AUTO ///// 2SM VV019 M19/M23 A2997 RMK AO1 PRESRR SLP221
METAR CYNL 081100Z AUTO ///// 1 1/2SM VV021 M19/M22 A2996 RMK AO1 PRESRR SLP218
SPECI CYNL 081048Z AUTO ///// 1 3/4SM VV024 M19/M23 A2995 RMK AO1 PRESRR SLP215
SPECI CYNL 081040Z AUTO ///// 1 3/4SM VV026 M19/M23 A2995 RMK AO1 PRESRR SLP213
SPECI CYNL 081035Z AUTO ///// 2 1/2SM VV029 M19/M23 A2995 RMK AO1 PRESRR SLP212
SPECI CYNL 081034Z AUTO ///// 3SM VV029 M19/M23 A2994 RMK AO1 PRESRR SLP212
SPECI CYNL 081033Z AUTO ///// 3SM VV030 M19/M23 A2994 RMK AO1 PRESRR SLP212
SPECI CYNL 081032Z AUTO ///// 2 1/2SM VV030 M19/M23 A2994 RMK AO1 PRESRR SLP211
SPECI CYNL 081011Z AUTO ///// 4SM VV030 M19/M23 A2993 RMK AO1 PRESRR SLP207
METAR CYNL 081000Z AUTO ///// 4SM VV029 M19/M23 A2992 RMK AO1 PRESRR SLP205
SPECI CYNL 080939Z AUTO ///// 3SM VV029 M19/M23 A2991 RMK AO1 PRESRR SLP200
METAR CYNL 080900Z AUTO ///// 4SM VV036 M19/M22 A2988 RMK AO1 PRESRR SLP189
SPECI CYNL 080827Z AUTO ///// 3SM VV030 M19/M22 A2986 RMK AO1 PRESRR SLP180
SPECI CYNL 080823Z AUTO ///// 3SM VV029 M19/M22 A2985 RMK AO1 PRESRR SLP179
SPECI CYNL 080820Z AUTO ///// 3SM VV030 M19/M22 A2985 RMK AO1 PRESRR SLP178
SPECI CYNL 080814Z AUTO ///// 2 1/2SM VV030 M19/M22 A2985 RMK AO1 PRESRR SLP177
SPECI CYNL 080813Z AUTO ///// 3SM VV030 M19/M22 A2985 RMK AO1 PRESRR SLP177
SPECI CYNL 080811Z AUTO ///// 3SM VV029 M19/M22 A2985 RMK AO1 PRESRR SLP176
METAR CYNL 080800Z AUTO ///// 3SM VV033 M19/M22 A2984 RMK AO1 PRESRR SLP173
SPECI CYNL 080748Z AUTO ///// 3SM VV034 M19/M22 A2983 RMK AO1 PRESRR SLP171
SPECI CYNL 080744Z AUTO ///// 2 1/2SM VV033 M19/M22 A2983 RMK AO1 PRESRR SLP170
SPECI CYNL 080742Z AUTO ///// 3SM VV033 M19/M22 A2982 RMK AO1 PRESRR SLP169
SPECI CYNL 080738Z AUTO ///// 2 1/2SM VV034 M19/M22 A2982 RMK AO1 PRESRR SLP168
SPECI CYNL 080720Z AUTO ///// 3SM VV034 M19/M22 A2981 RMK AO1 PRESRR SLP163
SPECI CYNL 080712Z AUTO ///// 2 1/2SM VV030 M19/M22 A2980 RMK AO1 PRESRR SLP161
SPECI CYNL 080707Z AUTO ///// 2 1/2SM VV028 M19/M22 A2980 RMK AO1 PRESRR SLP160
SPECI CYNL 080706Z AUTO ///// 3SM VV028 M19/M22 A2980 RMK AO1 PRESRR SLP160
METAR CYNL 080700Z AUTO ///// 2 1/2SM VV029 M19/M22 A2980 RMK AO1 PRESRR SLP159
SPECI CYNL 080654Z AUTO ///// 2 1/2SM VV029 M18/M22 A2979 RMK AO1 PRESRR SLP157
SPECI CYNL 080653Z AUTO ///// 3SM VV029 M18/M22 A2979 RMK AO1 PRESRR SLP156
SPECI CYNL 080650Z AUTO ///// 2SM VV029 M18/M22 A2979 RMK AO1 PRESRR SLP155
SPECI CYNL 080646Z AUTO ///// 2 1/2SM VV031 M18/M22 A2979 RMK AO1 PRESRR SLP155
SPECI CYNL 080645Z AUTO ///// 3SM VV032 M18/M22 A2979 RMK AO1 PRESRR SLP154
SPECI CYNL 080642Z AUTO ///// 2 1/2SM VV034 M18/M22 A2978 RMK AO1 PRESRR SLP154
SPECI CYNL 080601Z AUTO ///// 3SM VV035 M18/M21 A2976 RMK AO1 PRESRR SLP144
METAR CYNL 080600Z AUTO ///// 2 1/2SM VV035 M18/M21 A2976 RMK AO1 PRESRR SLP144
SPECI CYNL 080559Z AUTO ///// 2 1/2SM VV035 M18/M21 A2976 RMK AO1 PRESRR SLP143
SPECI CYNL 080556Z AUTO ///// 3SM VV034 M18/M21 A2975 RMK AO1 PRESRR SLP143
SPECI CYNL 080522Z AUTO ///// 2 1/2SM VV030 M18/M21 A2973 RMK AO1 PRESRR SLP134
SPECI CYNL 080519Z AUTO ///// 2 1/2SM VV028 M18/M21 A2973 RMK AO1 PRESRR SLP134
SPECI CYNL 080512Z AUTO ///// 3SM VV026 M18/M21 A2972 RMK AO1 PRESRR SLP132
SPECI CYNL 080505Z AUTO ///// 2 1/2SM VV025 M18/M21 A2972 RMK AO1 PRESRR SLP132
METAR CYNL 080500Z AUTO ///// 2 1/2SM VV024 M18/M21 A2972 RMK AO1 PRESRR SLP131
SPECI CYNL 080457Z AUTO ///// 2SM VV023 M18/M21 A2972 RMK AO1 PRESRR SLP130
SPECI CYNL 080453Z AUTO ///// 1 3/4SM VV022 M18/M21 A2972 RMK AO1 PRESRR SLP129
SPECI CYNL 080441Z AUTO ///// 2SM VV020 M18/M21 A2971 RMK AO1 PRESRR SLP127
SPECI CYNL 080430Z AUTO ///// 1 1/2SM VV019 M18/M21 A2970 RMK AO1 PRESRR SLP124
SPECI CYNL 080429Z AUTO ///// 1 1/4SM VV019 M18/M21 A2970 RMK AO1 PRESRR SLP124
SPECI CYNL 080428Z AUTO ///// 1 1/2SM VV019 M18/M21 A2970 RMK AO1 PRESRR SLP124
SPECI CYNL 080420Z AUTO ///// 1 1/4SM VV018 M18/M21 A2969 RMK AO1 PRESRR SLP122
SPECI CYNL 080415Z AUTO ///// 1 1/2SM VV016 M18/M21 A2969 RMK AO1 PRESRR SLP121
SPECI CYNL 080412Z AUTO ///// 1 1/4SM VV015 M18/M21 A2969 RMK AO1 PRESRR SLP121
SPECI CYNL 080405Z AUTO ///// 1SM VV014 M18/M21 A2969 RMK AO1 PRESRR SLP119
METAR CYNL 080400Z AUTO ///// 1SM VV015 M18/M21 A2969 RMK AO1 PRESRR SLP118
SPECI CYNL 080328Z AUTO ///// 1 1/4SM VV020 M17/M21 A2966 RMK AO1 PRESRR SLP111
SPECI CYNL 080309Z AUTO ///// 1 1/2SM VV021 M17/M21 A2966 RMK AO1 PRESRR SLP109
SPECI CYNL 080307Z AUTO ///// 1 1/4SM VV021 M17/M21 A2966 RMK AO1 PRESRR SLP109
METAR CYNL 080300Z AUTO ///// 1 1/2SM VV021 M17/M21 A2965 RMK AO1 PRESRR SLP108
SPECI CYNL 080254Z AUTO ///// 1 1/2SM VV020 M17/M21 A2965 RMK AO1 PRESRR SLP106
SPECI CYNL 080251Z AUTO ///// 1 1/4SM VV021 M17/M21 A2965 RMK AO1 PRESRR SLP106
SPECI CYNL 080244Z AUTO ///// 1 3/4SM VV022 M17/M21 A2965 RMK AO1 PRESRR SLP105
SPECI CYNL 080242Z AUTO ///// 2SM VV023 M17/M21 A2964 RMK AO1 PRESRR SLP104
SPECI CYNL 080239Z AUTO ///// 1 3/4SM VV023 M17/M21 A2964 RMK AO1 PRESRR SLP103
SPECI CYNL 080236Z AUTO ///// 2SM VV024 M17/M21 A2964 RMK AO1 PRESRR SLP103
SPECI CYNL 080235Z AUTO ///// 1 3/4SM VV024 M17/M21 A2964 RMK AO1 PRESRR SLP103
SPECI CYNL 080225Z AUTO ///// 2SM VV024 M17/M21 A2964 RMK AO1 PRESRR SLP101
SPECI CYNL 080222Z AUTO ///// 2SM VV026 M17/M21 A2963 RMK AO1 PRESRR SLP100
SPECI CYNL 080220Z AUTO ///// 1 3/4SM VV027 M17/M21 A2963 RMK AO1 PRESRR SLP099
SPECI CYNL 080217Z AUTO ///// 2 1/2SM VV029 M17/M21 A2963 RMK AO1 PRESRR SLP099
SPECI CYNL 080215Z AUTO ///// 3SM VV029 M17/M21 A2963 RMK AO1 PRESRR SLP098
SPECI CYNL 080214Z AUTO ///// 2 1/2SM VV029 M17/M21 A2963 RMK AO1 PRESRR SLP098
SPECI CYNL 080213Z AUTO ///// 3SM VV029 M17/M21 A2963 RMK AO1 PRESRR SLP098
SPECI CYNL 080212Z AUTO ///// 2 1/2SM VV028 M17/M21 A2963 RMK AO1 PRESRR SLP098
SPECI CYNL 080207Z AUTO ///// 3SM VV025 M17/M20 A2963 RMK AO1 PRESRR SLP097
SPECI CYNL 080206Z AUTO ///// 2 1/2SM VV025 M17/M20 A2963 RMK AO1 PRESRR SLP097
SPECI CYNL 080205Z AUTO ///// 3SM VV024 M17/M20 A2962 RMK AO1 PRESRR SLP097
SPECI CYNL 080201Z AUTO ///// 2 1/2SM VV024 M17/M20 A2962 RMK AO1 PRESRR SLP096
METAR CYNL 080200Z AUTO ///// 3SM VV024 M17/M20 A2962 RMK AO1 PRESRR SLP096
SPECI CYNL 080159Z AUTO ///// 3SM VV024 M17/M20 A2962 RMK AO1 PRESRR SLP096
SPECI CYNL 080153Z AUTO ///// 4SM VV029 M17/M20 A2962 RMK AO1 PRESRR SLP095
SPECI CYNL 080151Z AUTO ///// 4SM VV030 M17/M20 A2962 RMK AO1 PRESRR SLP094
SPECI CYNL 080144Z AUTO ///// 4SM VV025 M17/M20 A2961 RMK AO1 PRESRR SLP093
SPECI CYNL 080141Z AUTO ///// 3SM VV023 M17/M20 A2961 RMK AO1 PRESRR SLP092
SPECI CYNL 080134Z AUTO ///// 2 1/2SM VV021 M17/M20 A2961 RMK AO1 PRESRR SLP091
SPECI CYNL 080133Z AUTO ///// 3SM VV021 M17/M20 A2961 RMK AO1 PRESRR SLP091
SPECI CYNL 080131Z AUTO ///// 2 1/2SM VV021 M17/M20 A2961 RMK AO1 PRESRR SLP090
SPECI CYNL 080128Z AUTO ///// 3SM VV021 M17/M20 A2961 RMK AO1 PRESRR SLP090
SPECI CYNL 080103Z AUTO ///// 2 1/2SM VV021 M17/M20 A2959 RMK AO1 PRESRR SLP085
METAR CYNL 080100Z AUTO ///// 3SM VV023 M17/M20 A2959 RMK AO1 PRESRR SLP085
SPECI CYNL 080047Z AUTO ///// 4SM VV024 M17/M21 A2958 RMK AO1 PRESRR SLP083
SPECI CYNL 080042Z AUTO ///// 3SM VV025 M17/M21 A2958 RMK AO1 PRESRR SLP082
SPECI CYNL 080038Z AUTO ///// 3SM VV021 M17/M21 A2958 RMK AO1 PRESRR SLP082
SPECI CYNL 080011Z AUTO ///// 2SM VV020 M17/M21 A2957 RMK AO1 PRESRR SLP078
METAR CYNL 080000Z AUTO ///// 1 1/2SM VV017 M17/M21 A2957 RMK AO1 PRESRR SLP077
SPECI CYNL 072345Z AUTO ///// 1 1/2SM VV015 M17/M21 A2956 RMK AO1 PRESRR SLP075
SPECI CYNL 072341Z AUTO ///// 1 1/4SM VV018 M17/M21 A2956 RMK AO1 PRESRR SLP074
SPECI CYNL 072340Z AUTO ///// 1 3/4SM VV019 M17/M21 A2956 RMK AO1 PRESRR SLP074
SPECI CYNL 072336Z AUTO ///// 2SM VV017 M17/M21 A2955 RMK AO1 PRESRR SLP073
SPECI CYNL 072335Z AUTO ///// 1 3/4SM VV016 M17/M21 A2955 RMK AO1 PRESRR SLP072
SPECI CYNL 072334Z AUTO ///// 1 1/2SM VV014 M17/M21 A2955 RMK AO1 PRESRR SLP072
SPECI CYNL 072331Z AUTO ///// 1 1/4SM VV011 M17/M21 A2955 RMK AO1 PRESRR SLP071
SPECI CYNL 072330Z AUTO ///// 1 1/2SM VV011 M17/M21 A2955 RMK AO1 PRESRR SLP071
SPECI CYNL 072327Z AUTO ///// 1SM VV010 M17/M21 A2955 RMK AO1 PRESRR SLP071
SPECI CYNL 072323Z AUTO ///// 1SM VV009 M17/M21 A2955 RMK AO1 PRESRR SLP071
SPECI CYNL 072321Z AUTO ///// 3/4SM VV009 M17/M21 A2955 RMK AO1 PRESRR SLP070
SPECI CYNL 072319Z AUTO ///// 3/4SM VV010 M17/M21 A2955 RMK AO1 PRESRR SLP070
SPECI CYNL 072313Z AUTO ///// 1 1/4SM VV014 M17/M21 A2954 RMK AO1 PRESRR SLP069
SPECI CYNL 072312Z AUTO ///// 1 1/4SM VV015 M17/M21 A2954 RMK AO1 PRESRR SLP069
SPECI CYNL 072302Z AUTO ///// 1 1/2SM VV020 M17/M21 A2954 RMK AO1 PRESRR SLP068
METAR CYNL 072300Z AUTO ///// 1 1/4SM VV020 M17/M21 A2954 RMK AO1 PRESRR SLP067
SPECI CYNL 072247Z AUTO ///// 1 1/4SM VV022 M17/M21 A2953 RMK AO1 PRESRR SLP065
SPECI CYNL 072241Z AUTO ///// 1 1/2SM VV020 M17/M21 A2953 RMK AO1 PRESRR SLP064
SPECI CYNL 072237Z AUTO ///// 1 1/4SM VV018 M17/M21 A2953 RMK AO1 PRESRR SLP063
SPECI CYNL 072233Z AUTO ///// 1 3/4SM VV022 M17/M21 A2952 RMK AO1 PRESRR SLP061
SPECI CYNL 072231Z AUTO ///// 2 1/2SM VV024 M17/M21 A2952 RMK AO1 PRESRR SLP061
SPECI CYNL 072227Z AUTO ///// 2SM VV025 M17/M21 A2952 RMK AO1 PRESRR SLP060
SPECI CYNL 072220Z AUTO ///// 2SM VV017 M17/M21 A2952 RMK AO1 PRESRR SLP059
SPECI CYNL 072218Z AUTO ///// 1 3/4SM VV015 M17/M21 A2951 RMK AO1 PRESRR SLP059
SPECI CYNL 072214Z AUTO ///// 1 1/2SM VV012 M17/M21 A2951 RMK AO1 PRESRR SLP058
SPECI CYNL 072212Z AUTO ///// 1 1/4SM VV010 M17/M21 A2951 RMK AO1 PRESRR SLP058
SPECI CYNL 072208Z AUTO ///// 1SM VV009 M17/M21 A2951 RMK AO1 PRESRR SLP056
SPECI CYNL 072206Z AUTO ///// 3/4SM VV009 M17/M21 A2951 RMK AO1 PRESRR SLP056
SPECI CYNL 072203Z AUTO ///// 3/4SM VV012 M17/M20 A2950 RMK AO1 PRESRR SLP055
SPECI CYNL 072201Z AUTO ///// 1 1/4SM VV014 M17/M20 A2950 RMK AO1 PRESRR SLP055
METAR CYNL 072200Z AUTO ///// 1 1/2SM VV016 M17/M20 A2950 RMK AO1 PRESRR SLP054
SPECI CYNL 072158Z AUTO ///// 2 1/2SM VV019 M17/M20 A2950 RMK AO1 PRESRR SLP054
SPECI CYNL 072149Z AUTO ///// 3SM VV016 M17/M20 A2949 RMK AO1 PRESRR SLP052
SPECI CYNL 072137Z AUTO ///// 2SM VV014 M17/M20 A2949 RMK AO1 PRESRR SLP049
SPECI CYNL 072135Z AUTO ///// 2 1/2SM VV015 M17/M20 A2949 RMK AO1 PRESRR SLP049
SPECI CYNL 072127Z AUTO ///// 3SM VV016 M17/M20 A2948 RMK AO1 PRESRR SLP047
SPECI CYNL 072125Z AUTO ///// 3SM VV013 M17/M20 A2948 RMK AO1 PRESRR SLP047